<?xml version="1.0" encoding="UTF-8" standalone="no" ?>
<gpx xmlns="http://www.topografix.com/GPX/1/1" xmlns:xsi="http://www.w3.org/2001/XMLSchema-instance" xsi:schemaLocation="http://www.topografix.com/GPX/1/1 http://www.topografix.com/GPX/1/1/gpx.xsd" version="1.1" creator="VisuGPX - https://www.visugpx.com">
  <metadata>
    <name>83-V-Lorgues </name>
    <desc><![CDATA[83-V-Lorgues  : St Ferréol - les Allemanets - le pont de la Florièye]]></desc>
  </metadata>
  <trk>
    <name><![CDATA[Lorgues St Ferreol les Allemanets 7 km D220m F 1 3 h30 Vend Voit neant]]></name>
    <trkseg>
      <trkpt lat="43.49542" lon="6.37212">
        <ele>278.1</ele>
        <time>2016-09-09T11:48:13Z</time>
      </trkpt>
      <trkpt lat="43.49539" lon="6.37218">
        <ele>278</ele>
        <time>2016-09-09T11:48:10Z</time>
      </trkpt>
      <trkpt lat="43.49541" lon="6.37231">
        <ele>280</ele>
        <time>2016-09-09T11:48:36Z</time>
      </trkpt>
      <trkpt lat="43.49545" lon="6.37228">
        <ele>279</ele>
        <time>2016-09-09T11:48:43Z</time>
      </trkpt>
      <trkpt lat="43.49557" lon="6.37222">
        <ele>276.3</ele>
        <time>2016-09-09T11:48:58Z</time>
      </trkpt>
      <trkpt lat="43.49566" lon="6.37226">
        <ele>280.9</ele>
        <time>2016-09-09T11:49:10Z</time>
      </trkpt>
      <trkpt lat="43.4957" lon="6.37237">
        <ele>281.3</ele>
        <time>2016-09-09T11:49:21Z</time>
      </trkpt>
      <trkpt lat="43.49577" lon="6.37246">
        <ele>281.5</ele>
        <time>2016-09-09T11:49:31Z</time>
      </trkpt>
      <trkpt lat="43.49581" lon="6.37258">
        <ele>283.2</ele>
        <time>2016-09-09T11:49:39Z</time>
      </trkpt>
      <trkpt lat="43.49588" lon="6.37267">
        <ele>284.4</ele>
        <time>2016-09-09T11:49:49Z</time>
      </trkpt>
      <trkpt lat="43.49594" lon="6.37276">
        <ele>285</ele>
        <time>2016-09-09T11:49:59Z</time>
      </trkpt>
      <trkpt lat="43.49604" lon="6.3728">
        <ele>286.4</ele>
        <time>2016-09-09T11:50:09Z</time>
      </trkpt>
      <trkpt lat="43.49607" lon="6.37292">
        <ele>287.4</ele>
        <time>2016-09-09T11:50:16Z</time>
      </trkpt>
      <trkpt lat="43.49612" lon="6.37304">
        <ele>287.9</ele>
        <time>2016-09-09T11:50:26Z</time>
      </trkpt>
      <trkpt lat="43.49615" lon="6.37317">
        <ele>288.9</ele>
        <time>2016-09-09T11:50:34Z</time>
      </trkpt>
      <trkpt lat="43.49615" lon="6.37329">
        <ele>289.1</ele>
        <time>2016-09-09T11:50:42Z</time>
      </trkpt>
      <trkpt lat="43.49616" lon="6.37343">
        <ele>288.6</ele>
        <time>2016-09-09T11:50:54Z</time>
      </trkpt>
      <trkpt lat="43.49615" lon="6.37355">
        <ele>288.6</ele>
        <time>2016-09-09T11:51:01Z</time>
      </trkpt>
      <trkpt lat="43.49615" lon="6.37368">
        <ele>288.5</ele>
        <time>2016-09-09T11:51:09Z</time>
      </trkpt>
      <trkpt lat="43.49618" lon="6.3738">
        <ele>288.2</ele>
        <time>2016-09-09T11:51:24Z</time>
      </trkpt>
      <trkpt lat="43.49614" lon="6.37392">
        <ele>288.3</ele>
        <time>2016-09-09T11:53:05Z</time>
      </trkpt>
      <trkpt lat="43.49624" lon="6.37392">
        <ele>289.7</ele>
        <time>2016-09-09T11:54:02Z</time>
      </trkpt>
      <trkpt lat="43.49629" lon="6.37404">
        <ele>290.1</ele>
        <time>2016-09-09T11:54:13Z</time>
      </trkpt>
      <trkpt lat="43.49631" lon="6.37416">
        <ele>290.2</ele>
        <time>2016-09-09T11:54:22Z</time>
      </trkpt>
      <trkpt lat="43.4964" lon="6.3742">
        <ele>290.2</ele>
        <time>2016-09-09T11:54:37Z</time>
      </trkpt>
      <trkpt lat="43.49649" lon="6.37426">
        <ele>292.1</ele>
        <time>2016-09-09T11:54:55Z</time>
      </trkpt>
      <trkpt lat="43.49656" lon="6.37435">
        <ele>294.9</ele>
        <time>2016-09-09T11:55:19Z</time>
      </trkpt>
      <trkpt lat="43.49663" lon="6.37443">
        <ele>296.2</ele>
        <time>2016-09-09T11:55:31Z</time>
      </trkpt>
      <trkpt lat="43.49673" lon="6.37445">
        <ele>297.5</ele>
        <time>2016-09-09T11:55:44Z</time>
      </trkpt>
      <trkpt lat="43.49676" lon="6.37458">
        <ele>298.5</ele>
        <time>2016-09-09T11:55:55Z</time>
      </trkpt>
      <trkpt lat="43.49682" lon="6.37468">
        <ele>299.9</ele>
        <time>2016-09-09T11:56:09Z</time>
      </trkpt>
      <trkpt lat="43.49689" lon="6.3746">
        <ele>300.6</ele>
        <time>2016-09-09T11:56:24Z</time>
      </trkpt>
      <trkpt lat="43.49687" lon="6.37472">
        <ele>301.3</ele>
        <time>2016-09-09T11:57:31Z</time>
      </trkpt>
      <trkpt lat="43.49691" lon="6.37484">
        <ele>302.4</ele>
        <time>2016-09-09T11:57:49Z</time>
      </trkpt>
      <trkpt lat="43.49696" lon="6.37495">
        <ele>303.7</ele>
        <time>2016-09-09T11:58:04Z</time>
      </trkpt>
      <trkpt lat="43.49702" lon="6.37505">
        <ele>305.2</ele>
        <time>2016-09-09T11:58:18Z</time>
      </trkpt>
      <trkpt lat="43.49702" lon="6.37518">
        <ele>306.7</ele>
        <time>2016-09-09T11:58:33Z</time>
      </trkpt>
      <trkpt lat="43.49707" lon="6.3753">
        <ele>308.3</ele>
        <time>2016-09-09T11:58:46Z</time>
      </trkpt>
      <trkpt lat="43.49716" lon="6.37527">
        <ele>312.2</ele>
        <time>2016-09-09T11:59:10Z</time>
      </trkpt>
      <trkpt lat="43.49724" lon="6.37533">
        <ele>314.4</ele>
        <time>2016-09-09T11:59:26Z</time>
      </trkpt>
      <trkpt lat="43.49729" lon="6.37543">
        <ele>315.8</ele>
        <time>2016-09-09T11:59:39Z</time>
      </trkpt>
      <trkpt lat="43.49733" lon="6.37555">
        <ele>316.8</ele>
        <time>2016-09-09T12:01:28Z</time>
      </trkpt>
      <trkpt lat="43.4974" lon="6.37546">
        <ele>317.8</ele>
        <time>2016-09-09T12:02:24Z</time>
      </trkpt>
      <trkpt lat="43.49746" lon="6.37535">
        <ele>319.1</ele>
        <time>2016-09-09T12:02:37Z</time>
      </trkpt>
      <trkpt lat="43.49752" lon="6.37527">
        <ele>320.6</ele>
        <time>2016-09-09T12:02:51Z</time>
      </trkpt>
      <trkpt lat="43.49757" lon="6.37515">
        <ele>321.7</ele>
        <time>2016-09-09T12:03:00Z</time>
      </trkpt>
      <trkpt lat="43.49764" lon="6.37507">
        <ele>323.4</ele>
        <time>2016-09-09T12:03:12Z</time>
      </trkpt>
      <trkpt lat="43.49773" lon="6.37502">
        <ele>325.6</ele>
        <time>2016-09-09T12:03:25Z</time>
      </trkpt>
      <trkpt lat="43.49781" lon="6.37496">
        <ele>327.2</ele>
        <time>2016-09-09T12:03:40Z</time>
      </trkpt>
      <trkpt lat="43.49789" lon="6.37489">
        <ele>329.2</ele>
        <time>2016-09-09T12:03:55Z</time>
      </trkpt>
      <trkpt lat="43.49797" lon="6.3748">
        <ele>330.4</ele>
        <time>2016-09-09T12:04:05Z</time>
      </trkpt>
      <trkpt lat="43.49805" lon="6.37475">
        <ele>331.2</ele>
        <time>2016-09-09T12:04:51Z</time>
      </trkpt>
      <trkpt lat="43.49803" lon="6.37462">
        <ele>331.8</ele>
        <time>2016-09-09T12:06:45Z</time>
      </trkpt>
      <trkpt lat="43.49809" lon="6.37452">
        <ele>332.4</ele>
        <time>2016-09-09T12:06:58Z</time>
      </trkpt>
      <trkpt lat="43.49815" lon="6.37443">
        <ele>333</ele>
        <time>2016-09-09T12:07:09Z</time>
      </trkpt>
      <trkpt lat="43.49822" lon="6.37434">
        <ele>333.4</ele>
        <time>2016-09-09T12:07:30Z</time>
      </trkpt>
      <trkpt lat="43.49831" lon="6.3743">
        <ele>333.3</ele>
        <time>2016-09-09T12:07:43Z</time>
      </trkpt>
      <trkpt lat="43.4984" lon="6.37427">
        <ele>333.3</ele>
        <time>2016-09-09T12:07:57Z</time>
      </trkpt>
      <trkpt lat="43.49849" lon="6.3742">
        <ele>332.6</ele>
        <time>2016-09-09T12:08:11Z</time>
      </trkpt>
      <trkpt lat="43.49856" lon="6.37411">
        <ele>331.8</ele>
        <time>2016-09-09T12:08:28Z</time>
      </trkpt>
      <trkpt lat="43.49863" lon="6.37402">
        <ele>330.6</ele>
        <time>2016-09-09T12:08:43Z</time>
      </trkpt>
      <trkpt lat="43.4987" lon="6.37393">
        <ele>329.2</ele>
        <time>2016-09-09T12:08:55Z</time>
      </trkpt>
      <trkpt lat="43.49875" lon="6.37382">
        <ele>327.5</ele>
        <time>2016-09-09T12:09:05Z</time>
      </trkpt>
      <trkpt lat="43.49882" lon="6.37374">
        <ele>325.6</ele>
        <time>2016-09-09T12:09:14Z</time>
      </trkpt>
      <trkpt lat="43.4989" lon="6.37368">
        <ele>324.5</ele>
        <time>2016-09-09T12:09:22Z</time>
      </trkpt>
      <trkpt lat="43.49898" lon="6.3736">
        <ele>323.9</ele>
        <time>2016-09-09T12:09:31Z</time>
      </trkpt>
      <trkpt lat="43.49905" lon="6.37352">
        <ele>323.8</ele>
        <time>2016-09-09T12:09:40Z</time>
      </trkpt>
      <trkpt lat="43.49914" lon="6.37345">
        <ele>323.6</ele>
        <time>2016-09-09T12:09:50Z</time>
      </trkpt>
      <trkpt lat="43.49923" lon="6.37345">
        <ele>323.4</ele>
        <time>2016-09-09T12:09:59Z</time>
      </trkpt>
      <trkpt lat="43.49932" lon="6.37344">
        <ele>322.7</ele>
        <time>2016-09-09T12:10:07Z</time>
      </trkpt>
      <trkpt lat="43.49942" lon="6.37345">
        <ele>321.6</ele>
        <time>2016-09-09T12:10:15Z</time>
      </trkpt>
      <trkpt lat="43.4995" lon="6.3734">
        <ele>320</ele>
        <time>2016-09-09T12:10:28Z</time>
      </trkpt>
      <trkpt lat="43.4996" lon="6.37341">
        <ele>318.8</ele>
        <time>2016-09-09T12:10:38Z</time>
      </trkpt>
      <trkpt lat="43.49969" lon="6.37338">
        <ele>316.9</ele>
        <time>2016-09-09T12:10:49Z</time>
      </trkpt>
      <trkpt lat="43.49978" lon="6.3734">
        <ele>315.1</ele>
        <time>2016-09-09T12:11:01Z</time>
      </trkpt>
      <trkpt lat="43.49987" lon="6.37342">
        <ele>313.3</ele>
        <time>2016-09-09T12:11:13Z</time>
      </trkpt>
      <trkpt lat="43.49997" lon="6.37344">
        <ele>311.7</ele>
        <time>2016-09-09T12:11:24Z</time>
      </trkpt>
      <trkpt lat="43.50006" lon="6.37344">
        <ele>309.7</ele>
        <time>2016-09-09T12:11:41Z</time>
      </trkpt>
      <trkpt lat="43.50015" lon="6.3734">
        <ele>308.3</ele>
        <time>2016-09-09T12:11:53Z</time>
      </trkpt>
      <trkpt lat="43.50025" lon="6.3734">
        <ele>306.6</ele>
        <time>2016-09-09T12:12:06Z</time>
      </trkpt>
      <trkpt lat="43.50034" lon="6.37336">
        <ele>305.3</ele>
        <time>2016-09-09T12:12:18Z</time>
      </trkpt>
      <trkpt lat="43.50044" lon="6.37333">
        <ele>304.1</ele>
        <time>2016-09-09T12:12:30Z</time>
      </trkpt>
      <trkpt lat="43.50053" lon="6.37334">
        <ele>302.6</ele>
        <time>2016-09-09T12:12:43Z</time>
      </trkpt>
      <trkpt lat="43.50062" lon="6.37335">
        <ele>300.9</ele>
        <time>2016-09-09T12:13:00Z</time>
      </trkpt>
      <trkpt lat="43.50071" lon="6.37336">
        <ele>298.7</ele>
        <time>2016-09-09T12:13:38Z</time>
      </trkpt>
      <trkpt lat="43.5008" lon="6.37335">
        <ele>297.9</ele>
        <time>2016-09-09T12:13:51Z</time>
      </trkpt>
      <trkpt lat="43.50089" lon="6.3733">
        <ele>296.6</ele>
        <time>2016-09-09T12:14:12Z</time>
      </trkpt>
      <trkpt lat="43.50098" lon="6.37326">
        <ele>295.2</ele>
        <time>2016-09-09T12:14:25Z</time>
      </trkpt>
      <trkpt lat="43.50107" lon="6.37326">
        <ele>293.6</ele>
        <time>2016-09-09T12:14:35Z</time>
      </trkpt>
      <trkpt lat="43.50117" lon="6.37327">
        <ele>292.3</ele>
        <time>2016-09-09T12:14:47Z</time>
      </trkpt>
      <trkpt lat="43.50125" lon="6.37333">
        <ele>292.8</ele>
        <time>2016-09-09T12:14:56Z</time>
      </trkpt>
      <trkpt lat="43.50132" lon="6.37343">
        <ele>293.5</ele>
        <time>2016-09-09T12:15:06Z</time>
      </trkpt>
      <trkpt lat="43.50132" lon="6.37356">
        <ele>295</ele>
        <time>2016-09-09T12:15:19Z</time>
      </trkpt>
      <trkpt lat="43.5013" lon="6.37368">
        <ele>295.1</ele>
        <time>2016-09-09T12:15:28Z</time>
      </trkpt>
      <trkpt lat="43.50128" lon="6.37381">
        <ele>295.6</ele>
        <time>2016-09-09T12:15:38Z</time>
      </trkpt>
      <trkpt lat="43.50126" lon="6.37394">
        <ele>296.1</ele>
        <time>2016-09-09T12:15:48Z</time>
      </trkpt>
      <trkpt lat="43.50123" lon="6.37407">
        <ele>296.2</ele>
        <time>2016-09-09T12:15:58Z</time>
      </trkpt>
      <trkpt lat="43.50122" lon="6.37421">
        <ele>295.6</ele>
        <time>2016-09-09T12:16:07Z</time>
      </trkpt>
      <trkpt lat="43.50122" lon="6.37434">
        <ele>294.9</ele>
        <time>2016-09-09T12:16:18Z</time>
      </trkpt>
      <trkpt lat="43.50125" lon="6.37447">
        <ele>293.1</ele>
        <time>2016-09-09T12:16:30Z</time>
      </trkpt>
      <trkpt lat="43.50126" lon="6.3746">
        <ele>291.5</ele>
        <time>2016-09-09T12:16:41Z</time>
      </trkpt>
      <trkpt lat="43.50131" lon="6.3747">
        <ele>290.3</ele>
        <time>2016-09-09T12:16:52Z</time>
      </trkpt>
      <trkpt lat="43.50135" lon="6.37482">
        <ele>289.6</ele>
        <time>2016-09-09T12:17:01Z</time>
      </trkpt>
      <trkpt lat="43.50142" lon="6.37491">
        <ele>288.8</ele>
        <time>2016-09-09T12:17:11Z</time>
      </trkpt>
      <trkpt lat="43.50149" lon="6.375">
        <ele>288.9</ele>
        <time>2016-09-09T12:17:19Z</time>
      </trkpt>
      <trkpt lat="43.50156" lon="6.37508">
        <ele>288.7</ele>
        <time>2016-09-09T12:17:27Z</time>
      </trkpt>
      <trkpt lat="43.50164" lon="6.37517">
        <ele>288.8</ele>
        <time>2016-09-09T12:17:37Z</time>
      </trkpt>
      <trkpt lat="43.50172" lon="6.37524">
        <ele>289.3</ele>
        <time>2016-09-09T12:17:46Z</time>
      </trkpt>
      <trkpt lat="43.50179" lon="6.37533">
        <ele>289.4</ele>
        <time>2016-09-09T12:17:55Z</time>
      </trkpt>
      <trkpt lat="43.50187" lon="6.37541">
        <ele>289.9</ele>
        <time>2016-09-09T12:18:04Z</time>
      </trkpt>
      <trkpt lat="43.50197" lon="6.37548">
        <ele>290.1</ele>
        <time>2016-09-09T12:18:15Z</time>
      </trkpt>
      <trkpt lat="43.50205" lon="6.37555">
        <ele>290.5</ele>
        <time>2016-09-09T12:18:25Z</time>
      </trkpt>
      <trkpt lat="43.50214" lon="6.3756">
        <ele>290.8</ele>
        <time>2016-09-09T12:18:33Z</time>
      </trkpt>
      <trkpt lat="43.50223" lon="6.37565">
        <ele>291.4</ele>
        <time>2016-09-09T12:18:42Z</time>
      </trkpt>
      <trkpt lat="43.50231" lon="6.37571">
        <ele>292</ele>
        <time>2016-09-09T12:18:50Z</time>
      </trkpt>
      <trkpt lat="43.50238" lon="6.37578">
        <ele>293.3</ele>
        <time>2016-09-09T12:19:00Z</time>
      </trkpt>
      <trkpt lat="43.50247" lon="6.37584">
        <ele>295.3</ele>
        <time>2016-09-09T12:19:10Z</time>
      </trkpt>
      <trkpt lat="43.50255" lon="6.37592">
        <ele>296.2</ele>
        <time>2016-09-09T12:19:19Z</time>
      </trkpt>
      <trkpt lat="43.50262" lon="6.37601">
        <ele>297.8</ele>
        <time>2016-09-09T12:19:31Z</time>
      </trkpt>
      <trkpt lat="43.50269" lon="6.37609">
        <ele>298.8</ele>
        <time>2016-09-09T12:19:41Z</time>
      </trkpt>
      <trkpt lat="43.50277" lon="6.37616">
        <ele>299.9</ele>
        <time>2016-09-09T12:19:50Z</time>
      </trkpt>
      <trkpt lat="43.50284" lon="6.37623">
        <ele>300.8</ele>
        <time>2016-09-09T12:20:00Z</time>
      </trkpt>
      <trkpt lat="43.50293" lon="6.37631">
        <ele>302</ele>
        <time>2016-09-09T12:20:10Z</time>
      </trkpt>
      <trkpt lat="43.503" lon="6.37638">
        <ele>302.9</ele>
        <time>2016-09-09T12:20:19Z</time>
      </trkpt>
      <trkpt lat="43.50308" lon="6.37647">
        <ele>304.5</ele>
        <time>2016-09-09T12:20:29Z</time>
      </trkpt>
      <trkpt lat="43.50316" lon="6.37654">
        <ele>305.7</ele>
        <time>2016-09-09T12:20:39Z</time>
      </trkpt>
      <trkpt lat="43.50323" lon="6.37662">
        <ele>306.8</ele>
        <time>2016-09-09T12:20:48Z</time>
      </trkpt>
      <trkpt lat="43.50331" lon="6.37671">
        <ele>307.8</ele>
        <time>2016-09-09T12:20:58Z</time>
      </trkpt>
      <trkpt lat="43.50338" lon="6.3768">
        <ele>308.4</ele>
        <time>2016-09-09T12:21:08Z</time>
      </trkpt>
      <trkpt lat="43.50346" lon="6.37687">
        <ele>308.4</ele>
        <time>2016-09-09T12:21:18Z</time>
      </trkpt>
      <trkpt lat="43.50353" lon="6.37695">
        <ele>308.6</ele>
        <time>2016-09-09T12:21:42Z</time>
      </trkpt>
      <trkpt lat="43.50362" lon="6.377">
        <ele>308</ele>
        <time>2016-09-09T12:25:01Z</time>
      </trkpt>
      <trkpt lat="43.50369" lon="6.3771">
        <ele>307.5</ele>
        <time>2016-09-09T12:25:12Z</time>
      </trkpt>
      <trkpt lat="43.50376" lon="6.3772">
        <ele>306.8</ele>
        <time>2016-09-09T12:25:24Z</time>
      </trkpt>
      <trkpt lat="43.50383" lon="6.37728">
        <ele>306.2</ele>
        <time>2016-09-09T12:25:36Z</time>
      </trkpt>
      <trkpt lat="43.5039" lon="6.37735">
        <ele>305.9</ele>
        <time>2016-09-09T12:25:45Z</time>
      </trkpt>
      <trkpt lat="43.50397" lon="6.37743">
        <ele>305.6</ele>
        <time>2016-09-09T12:25:55Z</time>
      </trkpt>
      <trkpt lat="43.50404" lon="6.37753">
        <ele>305.2</ele>
        <time>2016-09-09T12:26:04Z</time>
      </trkpt>
      <trkpt lat="43.50412" lon="6.37761">
        <ele>305.3</ele>
        <time>2016-09-09T12:26:13Z</time>
      </trkpt>
      <trkpt lat="43.50417" lon="6.37772">
        <ele>305.5</ele>
        <time>2016-09-09T12:26:23Z</time>
      </trkpt>
      <trkpt lat="43.50419" lon="6.37784">
        <ele>305.1</ele>
        <time>2016-09-09T12:26:34Z</time>
      </trkpt>
      <trkpt lat="43.50419" lon="6.37798">
        <ele>304.5</ele>
        <time>2016-09-09T12:26:43Z</time>
      </trkpt>
      <trkpt lat="43.50416" lon="6.3781">
        <ele>303.8</ele>
        <time>2016-09-09T12:26:51Z</time>
      </trkpt>
      <trkpt lat="43.50414" lon="6.37822">
        <ele>303.1</ele>
        <time>2016-09-09T12:27:01Z</time>
      </trkpt>
      <trkpt lat="43.50411" lon="6.37835">
        <ele>303</ele>
        <time>2016-09-09T12:27:10Z</time>
      </trkpt>
      <trkpt lat="43.50409" lon="6.37847">
        <ele>303</ele>
        <time>2016-09-09T12:27:18Z</time>
      </trkpt>
      <trkpt lat="43.50407" lon="6.37859">
        <ele>303.2</ele>
        <time>2016-09-09T12:27:27Z</time>
      </trkpt>
      <trkpt lat="43.50406" lon="6.37872">
        <ele>302.8</ele>
        <time>2016-09-09T12:27:38Z</time>
      </trkpt>
      <trkpt lat="43.50405" lon="6.37885">
        <ele>302.6</ele>
        <time>2016-09-09T12:27:48Z</time>
      </trkpt>
      <trkpt lat="43.50404" lon="6.37899">
        <ele>301.8</ele>
        <time>2016-09-09T12:28:00Z</time>
      </trkpt>
      <trkpt lat="43.50407" lon="6.37912">
        <ele>301</ele>
        <time>2016-09-09T12:28:13Z</time>
      </trkpt>
      <trkpt lat="43.50409" lon="6.37924">
        <ele>300.3</ele>
        <time>2016-09-09T12:28:24Z</time>
      </trkpt>
      <trkpt lat="43.50411" lon="6.37936">
        <ele>299.6</ele>
        <time>2016-09-09T12:28:33Z</time>
      </trkpt>
      <trkpt lat="43.50414" lon="6.37949">
        <ele>298.2</ele>
        <time>2016-09-09T12:28:46Z</time>
      </trkpt>
      <trkpt lat="43.50416" lon="6.37961">
        <ele>297.2</ele>
        <time>2016-09-09T12:28:57Z</time>
      </trkpt>
      <trkpt lat="43.50419" lon="6.37974">
        <ele>296</ele>
        <time>2016-09-09T12:29:08Z</time>
      </trkpt>
      <trkpt lat="43.5042" lon="6.37986">
        <ele>295.1</ele>
        <time>2016-09-09T12:29:17Z</time>
      </trkpt>
      <trkpt lat="43.50424" lon="6.37997">
        <ele>294.1</ele>
        <time>2016-09-09T12:29:26Z</time>
      </trkpt>
      <trkpt lat="43.5043" lon="6.38007">
        <ele>293.5</ele>
        <time>2016-09-09T12:29:36Z</time>
      </trkpt>
      <trkpt lat="43.50437" lon="6.38015">
        <ele>292.6</ele>
        <time>2016-09-09T12:29:46Z</time>
      </trkpt>
      <trkpt lat="43.50443" lon="6.38025">
        <ele>292</ele>
        <time>2016-09-09T12:29:55Z</time>
      </trkpt>
      <trkpt lat="43.5045" lon="6.38034">
        <ele>290.7</ele>
        <time>2016-09-09T12:30:07Z</time>
      </trkpt>
      <trkpt lat="43.50458" lon="6.38037">
        <ele>290.1</ele>
        <time>2016-09-09T12:30:17Z</time>
      </trkpt>
      <trkpt lat="43.50466" lon="6.38046">
        <ele>288.5</ele>
        <time>2016-09-09T12:30:30Z</time>
      </trkpt>
      <trkpt lat="43.50475" lon="6.3805">
        <ele>287.6</ele>
        <time>2016-09-09T12:30:40Z</time>
      </trkpt>
      <trkpt lat="43.50483" lon="6.38056">
        <ele>286.4</ele>
        <time>2016-09-09T12:30:52Z</time>
      </trkpt>
      <trkpt lat="43.50491" lon="6.38061">
        <ele>285.9</ele>
        <time>2016-09-09T12:31:05Z</time>
      </trkpt>
      <trkpt lat="43.5049" lon="6.38073">
        <ele>285</ele>
        <time>2016-09-09T12:32:19Z</time>
      </trkpt>
      <trkpt lat="43.50484" lon="6.38084">
        <ele>283.6</ele>
        <time>2016-09-09T12:32:32Z</time>
      </trkpt>
      <trkpt lat="43.5048" lon="6.38096">
        <ele>282.7</ele>
        <time>2016-09-09T12:32:43Z</time>
      </trkpt>
      <trkpt lat="43.50476" lon="6.38109">
        <ele>280.9</ele>
        <time>2016-09-09T12:32:55Z</time>
      </trkpt>
      <trkpt lat="43.5047" lon="6.38119">
        <ele>280</ele>
        <time>2016-09-09T12:33:07Z</time>
      </trkpt>
      <trkpt lat="43.50467" lon="6.3813">
        <ele>277.6</ele>
        <time>2016-09-09T12:33:21Z</time>
      </trkpt>
      <trkpt lat="43.5047" lon="6.38142">
        <ele>275.5</ele>
        <time>2016-09-09T12:33:34Z</time>
      </trkpt>
      <trkpt lat="43.50465" lon="6.38153">
        <ele>273.6</ele>
        <time>2016-09-09T12:33:48Z</time>
      </trkpt>
      <trkpt lat="43.50462" lon="6.38165">
        <ele>270.8</ele>
        <time>2016-09-09T12:34:03Z</time>
      </trkpt>
      <trkpt lat="43.5046" lon="6.38177">
        <ele>269.3</ele>
        <time>2016-09-09T12:34:18Z</time>
      </trkpt>
      <trkpt lat="43.50466" lon="6.38186">
        <ele>267.5</ele>
        <time>2016-09-09T12:34:43Z</time>
      </trkpt>
      <trkpt lat="43.50461" lon="6.38197">
        <ele>265.4</ele>
        <time>2016-09-09T12:35:03Z</time>
      </trkpt>
      <trkpt lat="43.50452" lon="6.38196">
        <ele>265.4</ele>
        <time>2016-09-09T12:35:13Z</time>
      </trkpt>
      <trkpt lat="43.50443" lon="6.38196">
        <ele>265.8</ele>
        <time>2016-09-09T12:35:32Z</time>
      </trkpt>
      <trkpt lat="43.50437" lon="6.38206">
        <ele>264.7</ele>
        <time>2016-09-09T12:36:30Z</time>
      </trkpt>
      <trkpt lat="43.50435" lon="6.38218">
        <ele>263.3</ele>
        <time>2016-09-09T12:36:46Z</time>
      </trkpt>
      <trkpt lat="43.50434" lon="6.38231">
        <ele>261.8</ele>
        <time>2016-09-09T12:37:01Z</time>
      </trkpt>
      <trkpt lat="43.50435" lon="6.38244">
        <ele>259.2</ele>
        <time>2016-09-09T12:37:18Z</time>
      </trkpt>
      <trkpt lat="43.5043" lon="6.38254">
        <ele>256.4</ele>
        <time>2016-09-09T12:37:38Z</time>
      </trkpt>
      <trkpt lat="43.50431" lon="6.38267">
        <ele>254.4</ele>
        <time>2016-09-09T12:38:00Z</time>
      </trkpt>
      <trkpt lat="43.5044" lon="6.38272">
        <ele>253</ele>
        <time>2016-09-09T12:40:48Z</time>
      </trkpt>
      <trkpt lat="43.50447" lon="6.3828">
        <ele>252.9</ele>
        <time>2016-09-09T12:40:58Z</time>
      </trkpt>
      <trkpt lat="43.50452" lon="6.38292">
        <ele>252.8</ele>
        <time>2016-09-09T12:41:10Z</time>
      </trkpt>
      <trkpt lat="43.50455" lon="6.38305">
        <ele>252.5</ele>
        <time>2016-09-09T12:41:19Z</time>
      </trkpt>
      <trkpt lat="43.50461" lon="6.38316">
        <ele>252.2</ele>
        <time>2016-09-09T12:41:29Z</time>
      </trkpt>
      <trkpt lat="43.5047" lon="6.38322">
        <ele>252.1</ele>
        <time>2016-09-09T12:41:38Z</time>
      </trkpt>
      <trkpt lat="43.50474" lon="6.38333">
        <ele>251.6</ele>
        <time>2016-09-09T12:41:47Z</time>
      </trkpt>
      <trkpt lat="43.5048" lon="6.38343">
        <ele>251.3</ele>
        <time>2016-09-09T12:41:57Z</time>
      </trkpt>
      <trkpt lat="43.50484" lon="6.38355">
        <ele>250.9</ele>
        <time>2016-09-09T12:42:06Z</time>
      </trkpt>
      <trkpt lat="43.50488" lon="6.38368">
        <ele>250.5</ele>
        <time>2016-09-09T12:42:15Z</time>
      </trkpt>
      <trkpt lat="43.50495" lon="6.38376">
        <ele>250.2</ele>
        <time>2016-09-09T12:42:25Z</time>
      </trkpt>
      <trkpt lat="43.50501" lon="6.38385">
        <ele>249.8</ele>
        <time>2016-09-09T12:42:32Z</time>
      </trkpt>
      <trkpt lat="43.50506" lon="6.38396">
        <ele>249.1</ele>
        <time>2016-09-09T12:42:40Z</time>
      </trkpt>
      <trkpt lat="43.50513" lon="6.38407">
        <ele>248.2</ele>
        <time>2016-09-09T12:42:50Z</time>
      </trkpt>
      <trkpt lat="43.50518" lon="6.38418">
        <ele>247.8</ele>
        <time>2016-09-09T12:42:59Z</time>
      </trkpt>
      <trkpt lat="43.50521" lon="6.3843">
        <ele>246.6</ele>
        <time>2016-09-09T12:43:08Z</time>
      </trkpt>
      <trkpt lat="43.50523" lon="6.38443">
        <ele>245.4</ele>
        <time>2016-09-09T12:43:18Z</time>
      </trkpt>
      <trkpt lat="43.50528" lon="6.38455">
        <ele>244.2</ele>
        <time>2016-09-09T12:43:28Z</time>
      </trkpt>
      <trkpt lat="43.50531" lon="6.38468">
        <ele>243.1</ele>
        <time>2016-09-09T12:43:37Z</time>
      </trkpt>
      <trkpt lat="43.50535" lon="6.38481">
        <ele>241.7</ele>
        <time>2016-09-09T12:43:46Z</time>
      </trkpt>
      <trkpt lat="43.50537" lon="6.38494">
        <ele>240.8</ele>
        <time>2016-09-09T12:43:55Z</time>
      </trkpt>
      <trkpt lat="43.50539" lon="6.38507">
        <ele>239.1</ele>
        <time>2016-09-09T12:44:05Z</time>
      </trkpt>
      <trkpt lat="43.50544" lon="6.38518">
        <ele>238.3</ele>
        <time>2016-09-09T12:44:13Z</time>
      </trkpt>
      <trkpt lat="43.50546" lon="6.38531">
        <ele>237.4</ele>
        <time>2016-09-09T12:44:22Z</time>
      </trkpt>
      <trkpt lat="43.50548" lon="6.38543">
        <ele>236.5</ele>
        <time>2016-09-09T12:44:30Z</time>
      </trkpt>
      <trkpt lat="43.50549" lon="6.38556">
        <ele>235.8</ele>
        <time>2016-09-09T12:44:39Z</time>
      </trkpt>
      <trkpt lat="43.50551" lon="6.38568">
        <ele>235.1</ele>
        <time>2016-09-09T12:44:48Z</time>
      </trkpt>
      <trkpt lat="43.50552" lon="6.38581">
        <ele>234</ele>
        <time>2016-09-09T12:44:56Z</time>
      </trkpt>
      <trkpt lat="43.50555" lon="6.38593">
        <ele>233.4</ele>
        <time>2016-09-09T12:45:03Z</time>
      </trkpt>
      <trkpt lat="43.50558" lon="6.38606">
        <ele>232.9</ele>
        <time>2016-09-09T12:45:12Z</time>
      </trkpt>
      <trkpt lat="43.50562" lon="6.38617">
        <ele>232</ele>
        <time>2016-09-09T12:45:21Z</time>
      </trkpt>
      <trkpt lat="43.50563" lon="6.3863">
        <ele>231</ele>
        <time>2016-09-09T12:45:29Z</time>
      </trkpt>
      <trkpt lat="43.50566" lon="6.38643">
        <ele>230.1</ele>
        <time>2016-09-09T12:45:37Z</time>
      </trkpt>
      <trkpt lat="43.5057" lon="6.38654">
        <ele>229</ele>
        <time>2016-09-09T12:45:46Z</time>
      </trkpt>
      <trkpt lat="43.50576" lon="6.38664">
        <ele>227.4</ele>
        <time>2016-09-09T12:45:56Z</time>
      </trkpt>
      <trkpt lat="43.50584" lon="6.38672">
        <ele>226</ele>
        <time>2016-09-09T12:46:04Z</time>
      </trkpt>
      <trkpt lat="43.50591" lon="6.3868">
        <ele>224.4</ele>
        <time>2016-09-09T12:46:13Z</time>
      </trkpt>
      <trkpt lat="43.50593" lon="6.38693">
        <ele>223.5</ele>
        <time>2016-09-09T12:46:54Z</time>
      </trkpt>
      <trkpt lat="43.50584" lon="6.38697">
        <ele>223.1</ele>
        <time>2016-09-09T12:47:44Z</time>
      </trkpt>
      <trkpt lat="43.50575" lon="6.38696">
        <ele>222.7</ele>
        <time>2016-09-09T12:47:56Z</time>
      </trkpt>
      <trkpt lat="43.50566" lon="6.38698">
        <ele>222.1</ele>
        <time>2016-09-09T12:48:10Z</time>
      </trkpt>
      <trkpt lat="43.50556" lon="6.38696">
        <ele>222.1</ele>
        <time>2016-09-09T12:48:19Z</time>
      </trkpt>
      <trkpt lat="43.50548" lon="6.38691">
        <ele>222.1</ele>
        <time>2016-09-09T12:48:30Z</time>
      </trkpt>
      <trkpt lat="43.50539" lon="6.38686">
        <ele>222</ele>
        <time>2016-09-09T12:48:48Z</time>
      </trkpt>
      <trkpt lat="43.5053" lon="6.38683">
        <ele>221.3</ele>
        <time>2016-09-09T12:48:58Z</time>
      </trkpt>
      <trkpt lat="43.50521" lon="6.38682">
        <ele>220.3</ele>
        <time>2016-09-09T12:49:11Z</time>
      </trkpt>
      <trkpt lat="43.50511" lon="6.38683">
        <ele>219.6</ele>
        <time>2016-09-09T12:49:26Z</time>
      </trkpt>
      <trkpt lat="43.50505" lon="6.38692">
        <ele>218.2</ele>
        <time>2016-09-09T12:49:45Z</time>
      </trkpt>
      <trkpt lat="43.50499" lon="6.38703">
        <ele>217.9</ele>
        <time>2016-09-09T12:49:53Z</time>
      </trkpt>
      <trkpt lat="43.50494" lon="6.38714">
        <ele>217.5</ele>
        <time>2016-09-09T12:50:01Z</time>
      </trkpt>
      <trkpt lat="43.50489" lon="6.38725">
        <ele>217.3</ele>
        <time>2016-09-09T12:50:10Z</time>
      </trkpt>
      <trkpt lat="43.50491" lon="6.38738">
        <ele>216.9</ele>
        <time>2016-09-09T12:50:22Z</time>
      </trkpt>
      <trkpt lat="43.50487" lon="6.3875">
        <ele>215.8</ele>
        <time>2016-09-09T12:50:33Z</time>
      </trkpt>
      <trkpt lat="43.5048" lon="6.38759">
        <ele>215.3</ele>
        <time>2016-09-09T12:50:42Z</time>
      </trkpt>
      <trkpt lat="43.50471" lon="6.38764">
        <ele>215.6</ele>
        <time>2016-09-09T12:51:22Z</time>
      </trkpt>
      <trkpt lat="43.50462" lon="6.3876">
        <ele>217.1</ele>
        <time>2016-09-09T12:53:39Z</time>
      </trkpt>
      <trkpt lat="43.50454" lon="6.38764">
        <ele>217.9</ele>
        <time>2016-09-09T12:53:55Z</time>
      </trkpt>
      <trkpt lat="43.50445" lon="6.38768">
        <ele>218.4</ele>
        <time>2016-09-09T12:54:06Z</time>
      </trkpt>
      <trkpt lat="43.50435" lon="6.3877">
        <ele>218.8</ele>
        <time>2016-09-09T12:54:16Z</time>
      </trkpt>
      <trkpt lat="43.50426" lon="6.38773">
        <ele>219.1</ele>
        <time>2016-09-09T12:54:28Z</time>
      </trkpt>
      <trkpt lat="43.50416" lon="6.38775">
        <ele>218.9</ele>
        <time>2016-09-09T12:54:42Z</time>
      </trkpt>
      <trkpt lat="43.50407" lon="6.38775">
        <ele>219.6</ele>
        <time>2016-09-09T12:54:55Z</time>
      </trkpt>
      <trkpt lat="43.50397" lon="6.38775">
        <ele>220.2</ele>
        <time>2016-09-09T12:55:05Z</time>
      </trkpt>
      <trkpt lat="43.50387" lon="6.38777">
        <ele>220.4</ele>
        <time>2016-09-09T12:55:14Z</time>
      </trkpt>
      <trkpt lat="43.50379" lon="6.38784">
        <ele>220.5</ele>
        <time>2016-09-09T12:55:24Z</time>
      </trkpt>
      <trkpt lat="43.50375" lon="6.38795">
        <ele>219.5</ele>
        <time>2016-09-09T12:55:54Z</time>
      </trkpt>
      <trkpt lat="43.50366" lon="6.38799">
        <ele>219.6</ele>
        <time>2016-09-09T12:56:06Z</time>
      </trkpt>
      <trkpt lat="43.50357" lon="6.38801">
        <ele>220.1</ele>
        <time>2016-09-09T12:56:24Z</time>
      </trkpt>
      <trkpt lat="43.50352" lon="6.38812">
        <ele>219.6</ele>
        <time>2016-09-09T12:57:09Z</time>
      </trkpt>
      <trkpt lat="43.50349" lon="6.38824">
        <ele>219.9</ele>
        <time>2016-09-09T12:57:42Z</time>
      </trkpt>
      <trkpt lat="43.50343" lon="6.38835">
        <ele>218.7</ele>
        <time>2016-09-09T12:58:03Z</time>
      </trkpt>
      <trkpt lat="43.50337" lon="6.38845">
        <ele>217.7</ele>
        <time>2016-09-09T12:58:18Z</time>
      </trkpt>
      <trkpt lat="43.50328" lon="6.38848">
        <ele>216.7</ele>
        <time>2016-09-09T12:58:34Z</time>
      </trkpt>
      <trkpt lat="43.50323" lon="6.38859">
        <ele>215.5</ele>
        <time>2016-09-09T12:58:59Z</time>
      </trkpt>
      <trkpt lat="43.50324" lon="6.38873">
        <ele>214.1</ele>
        <time>2016-09-09T12:59:11Z</time>
      </trkpt>
      <trkpt lat="43.50323" lon="6.38886">
        <ele>213.5</ele>
        <time>2016-09-09T12:59:21Z</time>
      </trkpt>
      <trkpt lat="43.5032" lon="6.38898">
        <ele>213.2</ele>
        <time>2016-09-09T12:59:31Z</time>
      </trkpt>
      <trkpt lat="43.50318" lon="6.38912">
        <ele>212.9</ele>
        <time>2016-09-09T12:59:40Z</time>
      </trkpt>
      <trkpt lat="43.50317" lon="6.38924">
        <ele>212.7</ele>
        <time>2016-09-09T12:59:49Z</time>
      </trkpt>
      <trkpt lat="43.50315" lon="6.38937">
        <ele>212.8</ele>
        <time>2016-09-09T12:59:56Z</time>
      </trkpt>
      <trkpt lat="43.50309" lon="6.38947">
        <ele>213</ele>
        <time>2016-09-09T13:00:05Z</time>
      </trkpt>
      <trkpt lat="43.503" lon="6.3895">
        <ele>212.6</ele>
        <time>2016-09-09T13:00:16Z</time>
      </trkpt>
      <trkpt lat="43.50291" lon="6.38955">
        <ele>212.4</ele>
        <time>2016-09-09T13:00:24Z</time>
      </trkpt>
      <trkpt lat="43.50283" lon="6.38959">
        <ele>212</ele>
        <time>2016-09-09T13:00:32Z</time>
      </trkpt>
      <trkpt lat="43.50274" lon="6.38964">
        <ele>211.4</ele>
        <time>2016-09-09T13:00:41Z</time>
      </trkpt>
      <trkpt lat="43.50265" lon="6.38968">
        <ele>210.9</ele>
        <time>2016-09-09T13:00:49Z</time>
      </trkpt>
      <trkpt lat="43.50257" lon="6.38974">
        <ele>210.5</ele>
        <time>2016-09-09T13:00:57Z</time>
      </trkpt>
      <trkpt lat="43.50254" lon="6.38986">
        <ele>210.2</ele>
        <time>2016-09-09T13:01:06Z</time>
      </trkpt>
      <trkpt lat="43.50252" lon="6.38999">
        <ele>210.6</ele>
        <time>2016-09-09T13:01:15Z</time>
      </trkpt>
      <trkpt lat="43.5025" lon="6.39011">
        <ele>211.4</ele>
        <time>2016-09-09T13:01:24Z</time>
      </trkpt>
      <trkpt lat="43.50246" lon="6.39023">
        <ele>212.1</ele>
        <time>2016-09-09T13:01:32Z</time>
      </trkpt>
      <trkpt lat="43.50238" lon="6.39031">
        <ele>212.4</ele>
        <time>2016-09-09T13:01:42Z</time>
      </trkpt>
      <trkpt lat="43.50231" lon="6.39038">
        <ele>212.8</ele>
        <time>2016-09-09T13:01:50Z</time>
      </trkpt>
      <trkpt lat="43.50223" lon="6.39047">
        <ele>213</ele>
        <time>2016-09-09T13:01:58Z</time>
      </trkpt>
      <trkpt lat="43.50215" lon="6.39055">
        <ele>213.2</ele>
        <time>2016-09-09T13:02:07Z</time>
      </trkpt>
      <trkpt lat="43.50207" lon="6.39061">
        <ele>213.1</ele>
        <time>2016-09-09T13:02:15Z</time>
      </trkpt>
      <trkpt lat="43.502" lon="6.3907">
        <ele>213.3</ele>
        <time>2016-09-09T13:02:25Z</time>
      </trkpt>
      <trkpt lat="43.50194" lon="6.3908">
        <ele>214.1</ele>
        <time>2016-09-09T13:02:38Z</time>
      </trkpt>
      <trkpt lat="43.50193" lon="6.39093">
        <ele>215</ele>
        <time>2016-09-09T13:02:55Z</time>
      </trkpt>
      <trkpt lat="43.50195" lon="6.39106">
        <ele>216.4</ele>
        <time>2016-09-09T13:03:09Z</time>
      </trkpt>
      <trkpt lat="43.50197" lon="6.39118">
        <ele>217.8</ele>
        <time>2016-09-09T13:03:19Z</time>
      </trkpt>
      <trkpt lat="43.50203" lon="6.39128">
        <ele>219</ele>
        <time>2016-09-09T13:03:30Z</time>
      </trkpt>
      <trkpt lat="43.50209" lon="6.39137">
        <ele>220.1</ele>
        <time>2016-09-09T13:03:40Z</time>
      </trkpt>
      <trkpt lat="43.50215" lon="6.39148">
        <ele>221.1</ele>
        <time>2016-09-09T13:03:49Z</time>
      </trkpt>
      <trkpt lat="43.50222" lon="6.39157">
        <ele>222.2</ele>
        <time>2016-09-09T13:04:02Z</time>
      </trkpt>
      <trkpt lat="43.50228" lon="6.39167">
        <ele>223</ele>
        <time>2016-09-09T13:04:12Z</time>
      </trkpt>
      <trkpt lat="43.50236" lon="6.39175">
        <ele>224.2</ele>
        <time>2016-09-09T13:04:26Z</time>
      </trkpt>
      <trkpt lat="43.50242" lon="6.39185">
        <ele>225.6</ele>
        <time>2016-09-09T13:04:36Z</time>
      </trkpt>
      <trkpt lat="43.50247" lon="6.39196">
        <ele>227.1</ele>
        <time>2016-09-09T13:04:47Z</time>
      </trkpt>
      <trkpt lat="43.50253" lon="6.39207">
        <ele>228.1</ele>
        <time>2016-09-09T13:04:57Z</time>
      </trkpt>
      <trkpt lat="43.50259" lon="6.39217">
        <ele>229.3</ele>
        <time>2016-09-09T13:05:07Z</time>
      </trkpt>
      <trkpt lat="43.50263" lon="6.39228">
        <ele>230.2</ele>
        <time>2016-09-09T13:05:18Z</time>
      </trkpt>
      <trkpt lat="43.50265" lon="6.3924">
        <ele>231</ele>
        <time>2016-09-09T13:05:27Z</time>
      </trkpt>
      <trkpt lat="43.50265" lon="6.39253">
        <ele>231.8</ele>
        <time>2016-09-09T13:05:38Z</time>
      </trkpt>
      <trkpt lat="43.50262" lon="6.39265">
        <ele>232</ele>
        <time>2016-09-09T13:08:47Z</time>
      </trkpt>
      <trkpt lat="43.50255" lon="6.39273">
        <ele>231.8</ele>
        <time>2016-09-09T13:13:44Z</time>
      </trkpt>
      <trkpt lat="43.50253" lon="6.39286">
        <ele>232.6</ele>
        <time>2016-09-09T13:13:58Z</time>
      </trkpt>
      <trkpt lat="43.50251" lon="6.39299">
        <ele>233.8</ele>
        <time>2016-09-09T13:14:11Z</time>
      </trkpt>
      <trkpt lat="43.50249" lon="6.39311">
        <ele>235.2</ele>
        <time>2016-09-09T13:14:23Z</time>
      </trkpt>
      <trkpt lat="43.50247" lon="6.39323">
        <ele>236.3</ele>
        <time>2016-09-09T13:14:34Z</time>
      </trkpt>
      <trkpt lat="43.50247" lon="6.39336">
        <ele>237.4</ele>
        <time>2016-09-09T13:14:47Z</time>
      </trkpt>
      <trkpt lat="43.50249" lon="6.39349">
        <ele>238</ele>
        <time>2016-09-09T13:14:57Z</time>
      </trkpt>
      <trkpt lat="43.5025" lon="6.39362">
        <ele>238.9</ele>
        <time>2016-09-09T13:15:07Z</time>
      </trkpt>
      <trkpt lat="43.50256" lon="6.39371">
        <ele>239.5</ele>
        <time>2016-09-09T13:15:19Z</time>
      </trkpt>
      <trkpt lat="43.50262" lon="6.39382">
        <ele>239.6</ele>
        <time>2016-09-09T13:15:32Z</time>
      </trkpt>
      <trkpt lat="43.50265" lon="6.39395">
        <ele>240.1</ele>
        <time>2016-09-09T13:15:42Z</time>
      </trkpt>
      <trkpt lat="43.5027" lon="6.39406">
        <ele>240.5</ele>
        <time>2016-09-09T13:15:51Z</time>
      </trkpt>
      <trkpt lat="43.50273" lon="6.39419">
        <ele>241.2</ele>
        <time>2016-09-09T13:16:01Z</time>
      </trkpt>
      <trkpt lat="43.50279" lon="6.39429">
        <ele>242.1</ele>
        <time>2016-09-09T13:16:10Z</time>
      </trkpt>
      <trkpt lat="43.50284" lon="6.3944">
        <ele>242.3</ele>
        <time>2016-09-09T13:16:21Z</time>
      </trkpt>
      <trkpt lat="43.5029" lon="6.3945">
        <ele>242.6</ele>
        <time>2016-09-09T13:16:32Z</time>
      </trkpt>
      <trkpt lat="43.5029" lon="6.39463">
        <ele>242.6</ele>
        <time>2016-09-09T13:16:43Z</time>
      </trkpt>
      <trkpt lat="43.5029" lon="6.39476">
        <ele>242.3</ele>
        <time>2016-09-09T13:16:54Z</time>
      </trkpt>
      <trkpt lat="43.50289" lon="6.39489">
        <ele>242.6</ele>
        <time>2016-09-09T13:17:03Z</time>
      </trkpt>
      <trkpt lat="43.50289" lon="6.39502">
        <ele>242.9</ele>
        <time>2016-09-09T13:17:13Z</time>
      </trkpt>
      <trkpt lat="43.50288" lon="6.39515">
        <ele>243</ele>
        <time>2016-09-09T13:17:24Z</time>
      </trkpt>
      <trkpt lat="43.50286" lon="6.39527">
        <ele>243.9</ele>
        <time>2016-09-09T13:17:34Z</time>
      </trkpt>
      <trkpt lat="43.50284" lon="6.3954">
        <ele>243.7</ele>
        <time>2016-09-09T13:17:50Z</time>
      </trkpt>
      <trkpt lat="43.50281" lon="6.39553">
        <ele>242.1</ele>
        <time>2016-09-09T13:18:04Z</time>
      </trkpt>
      <trkpt lat="43.5028" lon="6.39566">
        <ele>241.1</ele>
        <time>2016-09-09T13:18:15Z</time>
      </trkpt>
      <trkpt lat="43.50279" lon="6.39578">
        <ele>239.4</ele>
        <time>2016-09-09T13:18:27Z</time>
      </trkpt>
      <trkpt lat="43.50278" lon="6.39591">
        <ele>237</ele>
        <time>2016-09-09T13:18:44Z</time>
      </trkpt>
      <trkpt lat="43.50277" lon="6.39604">
        <ele>235.6</ele>
        <time>2016-09-09T13:18:55Z</time>
      </trkpt>
      <trkpt lat="43.50273" lon="6.39616">
        <ele>233.8</ele>
        <time>2016-09-09T13:19:08Z</time>
      </trkpt>
      <trkpt lat="43.50272" lon="6.39629">
        <ele>232.7</ele>
        <time>2016-09-09T13:19:19Z</time>
      </trkpt>
      <trkpt lat="43.50272" lon="6.39643">
        <ele>232</ele>
        <time>2016-09-09T13:19:31Z</time>
      </trkpt>
      <trkpt lat="43.50274" lon="6.39657">
        <ele>231.1</ele>
        <time>2016-09-09T13:19:42Z</time>
      </trkpt>
      <trkpt lat="43.50272" lon="6.3967">
        <ele>231.3</ele>
        <time>2016-09-09T13:19:54Z</time>
      </trkpt>
      <trkpt lat="43.50269" lon="6.39682">
        <ele>232</ele>
        <time>2016-09-09T13:20:03Z</time>
      </trkpt>
      <trkpt lat="43.50269" lon="6.39694">
        <ele>232.9</ele>
        <time>2016-09-09T13:20:13Z</time>
      </trkpt>
      <trkpt lat="43.50267" lon="6.39707">
        <ele>232.6</ele>
        <time>2016-09-09T13:20:22Z</time>
      </trkpt>
      <trkpt lat="43.50269" lon="6.39719">
        <ele>232.1</ele>
        <time>2016-09-09T13:20:31Z</time>
      </trkpt>
      <trkpt lat="43.50268" lon="6.39732">
        <ele>232.4</ele>
        <time>2016-09-09T13:21:33Z</time>
      </trkpt>
      <trkpt lat="43.50265" lon="6.39744">
        <ele>232.9</ele>
        <time>2016-09-09T13:22:19Z</time>
      </trkpt>
      <trkpt lat="43.50263" lon="6.39756">
        <ele>232.9</ele>
        <time>2016-09-09T13:22:31Z</time>
      </trkpt>
      <trkpt lat="43.50258" lon="6.39767">
        <ele>231.8</ele>
        <time>2016-09-09T13:22:47Z</time>
      </trkpt>
      <trkpt lat="43.50257" lon="6.3978">
        <ele>229.5</ele>
        <time>2016-09-09T13:23:07Z</time>
      </trkpt>
      <trkpt lat="43.50257" lon="6.39793">
        <ele>227.8</ele>
        <time>2016-09-09T13:23:23Z</time>
      </trkpt>
      <trkpt lat="43.50255" lon="6.39805">
        <ele>225.6</ele>
        <time>2016-09-09T13:23:39Z</time>
      </trkpt>
      <trkpt lat="43.50248" lon="6.39814">
        <ele>222.8</ele>
        <time>2016-09-09T13:23:53Z</time>
      </trkpt>
      <trkpt lat="43.50243" lon="6.39825">
        <ele>219.3</ele>
        <time>2016-09-09T13:24:14Z</time>
      </trkpt>
      <trkpt lat="43.50237" lon="6.39834">
        <ele>217</ele>
        <time>2016-09-09T13:24:28Z</time>
      </trkpt>
      <trkpt lat="43.50233" lon="6.39845">
        <ele>214.2</ele>
        <time>2016-09-09T13:24:44Z</time>
      </trkpt>
      <trkpt lat="43.50228" lon="6.39857">
        <ele>211.5</ele>
        <time>2016-09-09T13:25:00Z</time>
      </trkpt>
      <trkpt lat="43.50224" lon="6.39868">
        <ele>209.5</ele>
        <time>2016-09-09T13:25:13Z</time>
      </trkpt>
      <trkpt lat="43.50221" lon="6.39881">
        <ele>207.7</ele>
        <time>2016-09-09T13:25:27Z</time>
      </trkpt>
      <trkpt lat="43.50227" lon="6.39891">
        <ele>204.6</ele>
        <time>2016-09-09T13:25:46Z</time>
      </trkpt>
      <trkpt lat="43.50234" lon="6.39898">
        <ele>200.9</ele>
        <time>2016-09-09T13:26:10Z</time>
      </trkpt>
      <trkpt lat="43.50239" lon="6.39908">
        <ele>198.2</ele>
        <time>2016-09-09T13:26:31Z</time>
      </trkpt>
      <trkpt lat="43.50239" lon="6.39921">
        <ele>194.6</ele>
        <time>2016-09-09T13:26:48Z</time>
      </trkpt>
      <trkpt lat="43.5024" lon="6.39933">
        <ele>191.7</ele>
        <time>2016-09-09T13:27:05Z</time>
      </trkpt>
      <trkpt lat="43.50248" lon="6.3994">
        <ele>188.8</ele>
        <time>2016-09-09T13:27:23Z</time>
      </trkpt>
      <trkpt lat="43.50258" lon="6.3994">
        <ele>186.7</ele>
        <time>2016-09-09T13:27:39Z</time>
      </trkpt>
      <trkpt lat="43.50266" lon="6.39945">
        <ele>185</ele>
        <time>2016-09-09T13:27:52Z</time>
      </trkpt>
      <trkpt lat="43.50273" lon="6.39954">
        <ele>182.4</ele>
        <time>2016-09-09T13:28:08Z</time>
      </trkpt>
      <trkpt lat="43.50274" lon="6.39967">
        <ele>179.8</ele>
        <time>2016-09-09T13:28:25Z</time>
      </trkpt>
      <trkpt lat="43.50281" lon="6.39976">
        <ele>177.7</ele>
        <time>2016-09-09T13:28:37Z</time>
      </trkpt>
      <trkpt lat="43.50288" lon="6.39983">
        <ele>176.9</ele>
        <time>2016-09-09T13:28:46Z</time>
      </trkpt>
      <trkpt lat="43.50293" lon="6.39994">
        <ele>176.1</ele>
        <time>2016-09-09T13:29:02Z</time>
      </trkpt>
      <trkpt lat="43.50289" lon="6.40004">
        <ele>174</ele>
        <time>2016-09-09T13:29:22Z</time>
      </trkpt>
      <trkpt lat="43.50295" lon="6.40014">
        <ele>169.6</ele>
        <time>2016-09-09T13:32:27Z</time>
      </trkpt>
      <trkpt lat="43.50302" lon="6.40021">
        <ele>168.8</ele>
        <time>2016-09-09T13:32:39Z</time>
      </trkpt>
      <trkpt lat="43.5031" lon="6.40028">
        <ele>167.8</ele>
        <time>2016-09-09T13:32:50Z</time>
      </trkpt>
      <trkpt lat="43.50312" lon="6.40041">
        <ele>167</ele>
        <time>2016-09-09T13:33:05Z</time>
      </trkpt>
      <trkpt lat="43.50303" lon="6.40043">
        <ele>165.8</ele>
        <time>2016-09-09T13:33:25Z</time>
      </trkpt>
      <trkpt lat="43.50293" lon="6.40043">
        <ele>164.5</ele>
        <time>2016-09-09T13:33:38Z</time>
      </trkpt>
      <trkpt lat="43.50284" lon="6.40045">
        <ele>163.9</ele>
        <time>2016-09-09T13:33:53Z</time>
      </trkpt>
      <trkpt lat="43.50275" lon="6.40043">
        <ele>163</ele>
        <time>2016-09-09T13:34:17Z</time>
      </trkpt>
      <trkpt lat="43.50266" lon="6.40039">
        <ele>160.7</ele>
        <time>2016-09-09T13:34:52Z</time>
      </trkpt>
      <trkpt lat="43.50258" lon="6.40044">
        <ele>158.8</ele>
        <time>2016-09-09T13:35:22Z</time>
      </trkpt>
      <trkpt lat="43.50259" lon="6.40056">
        <ele>157.2</ele>
        <time>2016-09-09T13:36:37Z</time>
      </trkpt>
      <trkpt lat="43.50267" lon="6.40064">
        <ele>157</ele>
        <time>2016-09-09T13:36:49Z</time>
      </trkpt>
      <trkpt lat="43.50275" lon="6.40071">
        <ele>156.8</ele>
        <time>2016-09-09T13:37:00Z</time>
      </trkpt>
      <trkpt lat="43.50282" lon="6.40079">
        <ele>156.6</ele>
        <time>2016-09-09T13:37:15Z</time>
      </trkpt>
      <trkpt lat="43.50289" lon="6.40086">
        <ele>157.4</ele>
        <time>2016-09-09T13:37:33Z</time>
      </trkpt>
      <trkpt lat="43.50298" lon="6.40089">
        <ele>157.5</ele>
        <time>2016-09-09T13:37:47Z</time>
      </trkpt>
      <trkpt lat="43.50301" lon="6.40102">
        <ele>157.4</ele>
        <time>2016-09-09T13:38:01Z</time>
      </trkpt>
      <trkpt lat="43.50309" lon="6.40109">
        <ele>156.7</ele>
        <time>2016-09-09T13:38:22Z</time>
      </trkpt>
      <trkpt lat="43.50315" lon="6.40117">
        <ele>156.8</ele>
        <time>2016-09-09T13:38:35Z</time>
      </trkpt>
      <trkpt lat="43.50315" lon="6.40129">
        <ele>156.1</ele>
        <time>2016-09-09T13:38:50Z</time>
      </trkpt>
      <trkpt lat="43.50318" lon="6.40141">
        <ele>155.7</ele>
        <time>2016-09-09T13:39:10Z</time>
      </trkpt>
      <trkpt lat="43.50326" lon="6.40146">
        <ele>155.5</ele>
        <time>2016-09-09T13:39:26Z</time>
      </trkpt>
      <trkpt lat="43.50335" lon="6.40151">
        <ele>155.4</ele>
        <time>2016-09-09T13:39:38Z</time>
      </trkpt>
      <trkpt lat="43.50344" lon="6.40152">
        <ele>156.2</ele>
        <time>2016-09-09T13:39:55Z</time>
      </trkpt>
      <trkpt lat="43.50348" lon="6.4014">
        <ele>158.2</ele>
        <time>2016-09-09T13:40:10Z</time>
      </trkpt>
      <trkpt lat="43.50351" lon="6.40128">
        <ele>158.9</ele>
        <time>2016-09-09T13:40:22Z</time>
      </trkpt>
      <trkpt lat="43.50352" lon="6.40115">
        <ele>158.8</ele>
        <time>2016-09-09T13:40:37Z</time>
      </trkpt>
      <trkpt lat="43.50346" lon="6.40105">
        <ele>158.8</ele>
        <time>2016-09-09T13:40:48Z</time>
      </trkpt>
      <trkpt lat="43.5034" lon="6.40094">
        <ele>158.4</ele>
        <time>2016-09-09T13:40:59Z</time>
      </trkpt>
      <trkpt lat="43.50334" lon="6.40085">
        <ele>158.3</ele>
        <time>2016-09-09T13:41:08Z</time>
      </trkpt>
      <trkpt lat="43.50329" lon="6.40074">
        <ele>158.3</ele>
        <time>2016-09-09T13:41:20Z</time>
      </trkpt>
      <trkpt lat="43.50323" lon="6.40065">
        <ele>158.7</ele>
        <time>2016-09-09T13:41:33Z</time>
      </trkpt>
      <trkpt lat="43.50317" lon="6.40055">
        <ele>158.8</ele>
        <time>2016-09-09T13:41:46Z</time>
      </trkpt>
      <trkpt lat="43.50308" lon="6.40056">
        <ele>159.3</ele>
        <time>2016-09-09T13:42:01Z</time>
      </trkpt>
      <trkpt lat="43.50302" lon="6.40065">
        <ele>159</ele>
        <time>2016-09-09T13:42:12Z</time>
      </trkpt>
      <trkpt lat="43.50296" lon="6.40075">
        <ele>158.6</ele>
        <time>2016-09-09T13:42:23Z</time>
      </trkpt>
      <trkpt lat="43.5029" lon="6.40085">
        <ele>158.8</ele>
        <time>2016-09-09T13:42:33Z</time>
      </trkpt>
      <trkpt lat="43.50296" lon="6.40076">
        <ele>155.8</ele>
        <time>2016-09-09T13:45:24Z</time>
      </trkpt>
      <trkpt lat="43.50304" lon="6.40067">
        <ele>155.5</ele>
        <time>2016-09-09T13:45:35Z</time>
      </trkpt>
      <trkpt lat="43.50311" lon="6.40058">
        <ele>155.4</ele>
        <time>2016-09-09T13:45:44Z</time>
      </trkpt>
      <trkpt lat="43.50313" lon="6.40045">
        <ele>155.4</ele>
        <time>2016-09-09T13:45:52Z</time>
      </trkpt>
      <trkpt lat="43.50309" lon="6.40033">
        <ele>155.5</ele>
        <time>2016-09-09T13:45:59Z</time>
      </trkpt>
      <trkpt lat="43.50302" lon="6.40024">
        <ele>155.6</ele>
        <time>2016-09-09T13:46:08Z</time>
      </trkpt>
      <trkpt lat="43.50294" lon="6.40016">
        <ele>155.8</ele>
        <time>2016-09-09T13:46:17Z</time>
      </trkpt>
      <trkpt lat="43.50288" lon="6.40007">
        <ele>156.7</ele>
        <time>2016-09-09T13:46:30Z</time>
      </trkpt>
      <trkpt lat="43.50279" lon="6.40001">
        <ele>155.9</ele>
        <time>2016-09-09T13:47:55Z</time>
      </trkpt>
      <trkpt lat="43.5027" lon="6.40001">
        <ele>155</ele>
        <time>2016-09-09T13:49:42Z</time>
      </trkpt>
      <trkpt lat="43.50261" lon="6.40001">
        <ele>155.9</ele>
        <time>2016-09-09T13:49:55Z</time>
      </trkpt>
      <trkpt lat="43.50252" lon="6.40005">
        <ele>156.7</ele>
        <time>2016-09-09T13:50:07Z</time>
      </trkpt>
      <trkpt lat="43.50242" lon="6.40006">
        <ele>157.8</ele>
        <time>2016-09-09T13:50:18Z</time>
      </trkpt>
      <trkpt lat="43.50233" lon="6.40004">
        <ele>158</ele>
        <time>2016-09-09T13:50:27Z</time>
      </trkpt>
      <trkpt lat="43.50224" lon="6.40001">
        <ele>157.8</ele>
        <time>2016-09-09T13:50:36Z</time>
      </trkpt>
      <trkpt lat="43.50215" lon="6.39998">
        <ele>157.6</ele>
        <time>2016-09-09T13:50:44Z</time>
      </trkpt>
      <trkpt lat="43.50205" lon="6.39992">
        <ele>157</ele>
        <time>2016-09-09T13:50:54Z</time>
      </trkpt>
      <trkpt lat="43.50197" lon="6.39988">
        <ele>156.5</ele>
        <time>2016-09-09T13:51:03Z</time>
      </trkpt>
      <trkpt lat="43.50189" lon="6.39981">
        <ele>156.1</ele>
        <time>2016-09-09T13:51:12Z</time>
      </trkpt>
      <trkpt lat="43.50181" lon="6.39974">
        <ele>155.7</ele>
        <time>2016-09-09T13:51:21Z</time>
      </trkpt>
      <trkpt lat="43.50173" lon="6.39967">
        <ele>155.7</ele>
        <time>2016-09-09T13:51:29Z</time>
      </trkpt>
      <trkpt lat="43.50165" lon="6.39961">
        <ele>155.6</ele>
        <time>2016-09-09T13:51:37Z</time>
      </trkpt>
      <trkpt lat="43.50159" lon="6.3995">
        <ele>155.3</ele>
        <time>2016-09-09T13:51:47Z</time>
      </trkpt>
      <trkpt lat="43.50155" lon="6.39939">
        <ele>156</ele>
        <time>2016-09-09T13:51:57Z</time>
      </trkpt>
      <trkpt lat="43.50152" lon="6.39927">
        <ele>156.3</ele>
        <time>2016-09-09T13:52:06Z</time>
      </trkpt>
      <trkpt lat="43.50149" lon="6.39915">
        <ele>156.7</ele>
        <time>2016-09-09T13:52:15Z</time>
      </trkpt>
      <trkpt lat="43.50149" lon="6.39902">
        <ele>157.3</ele>
        <time>2016-09-09T13:52:26Z</time>
      </trkpt>
      <trkpt lat="43.50151" lon="6.39889">
        <ele>157.8</ele>
        <time>2016-09-09T13:52:35Z</time>
      </trkpt>
      <trkpt lat="43.5015" lon="6.39876">
        <ele>158.5</ele>
        <time>2016-09-09T13:52:46Z</time>
      </trkpt>
      <trkpt lat="43.5015" lon="6.39863">
        <ele>159.4</ele>
        <time>2016-09-09T13:52:57Z</time>
      </trkpt>
      <trkpt lat="43.5015" lon="6.3985">
        <ele>159.6</ele>
        <time>2016-09-09T13:53:07Z</time>
      </trkpt>
      <trkpt lat="43.50151" lon="6.39837">
        <ele>160.1</ele>
        <time>2016-09-09T13:53:18Z</time>
      </trkpt>
      <trkpt lat="43.50151" lon="6.39824">
        <ele>160.6</ele>
        <time>2016-09-09T13:53:29Z</time>
      </trkpt>
      <trkpt lat="43.5015" lon="6.39812">
        <ele>161.3</ele>
        <time>2016-09-09T13:53:38Z</time>
      </trkpt>
      <trkpt lat="43.50151" lon="6.39799">
        <ele>162</ele>
        <time>2016-09-09T13:53:46Z</time>
      </trkpt>
      <trkpt lat="43.50152" lon="6.39786">
        <ele>163.1</ele>
        <time>2016-09-09T13:53:57Z</time>
      </trkpt>
      <trkpt lat="43.50151" lon="6.39772">
        <ele>164</ele>
        <time>2016-09-09T13:54:09Z</time>
      </trkpt>
      <trkpt lat="43.5015" lon="6.39759">
        <ele>164.7</ele>
        <time>2016-09-09T13:54:19Z</time>
      </trkpt>
      <trkpt lat="43.50151" lon="6.39746">
        <ele>165.8</ele>
        <time>2016-09-09T13:54:29Z</time>
      </trkpt>
      <trkpt lat="43.50152" lon="6.39733">
        <ele>166.1</ele>
        <time>2016-09-09T13:54:39Z</time>
      </trkpt>
      <trkpt lat="43.50153" lon="6.39719">
        <ele>166.6</ele>
        <time>2016-09-09T13:54:48Z</time>
      </trkpt>
      <trkpt lat="43.50153" lon="6.39706">
        <ele>166.6</ele>
        <time>2016-09-09T13:55:00Z</time>
      </trkpt>
      <trkpt lat="43.50154" lon="6.39692">
        <ele>167.5</ele>
        <time>2016-09-09T13:55:10Z</time>
      </trkpt>
      <trkpt lat="43.50154" lon="6.39679">
        <ele>168.2</ele>
        <time>2016-09-09T13:55:19Z</time>
      </trkpt>
      <trkpt lat="43.50153" lon="6.39666">
        <ele>169.2</ele>
        <time>2016-09-09T13:55:28Z</time>
      </trkpt>
      <trkpt lat="43.50151" lon="6.39653">
        <ele>170</ele>
        <time>2016-09-09T13:55:38Z</time>
      </trkpt>
      <trkpt lat="43.50149" lon="6.39641">
        <ele>170.3</ele>
        <time>2016-09-09T13:55:47Z</time>
      </trkpt>
      <trkpt lat="43.50147" lon="6.39629">
        <ele>171.3</ele>
        <time>2016-09-09T13:55:58Z</time>
      </trkpt>
      <trkpt lat="43.50146" lon="6.39615">
        <ele>171.9</ele>
        <time>2016-09-09T13:56:09Z</time>
      </trkpt>
      <trkpt lat="43.50148" lon="6.39602">
        <ele>172.4</ele>
        <time>2016-09-09T13:56:21Z</time>
      </trkpt>
      <trkpt lat="43.50148" lon="6.39589">
        <ele>173.3</ele>
        <time>2016-09-09T13:56:32Z</time>
      </trkpt>
      <trkpt lat="43.50147" lon="6.39576">
        <ele>173.7</ele>
        <time>2016-09-09T13:56:43Z</time>
      </trkpt>
      <trkpt lat="43.50146" lon="6.39563">
        <ele>174.3</ele>
        <time>2016-09-09T13:56:55Z</time>
      </trkpt>
      <trkpt lat="43.50145" lon="6.39549">
        <ele>174.3</ele>
        <time>2016-09-09T13:57:06Z</time>
      </trkpt>
      <trkpt lat="43.50145" lon="6.39536">
        <ele>174.9</ele>
        <time>2016-09-09T13:57:16Z</time>
      </trkpt>
      <trkpt lat="43.50145" lon="6.39523">
        <ele>174.5</ele>
        <time>2016-09-09T13:57:24Z</time>
      </trkpt>
      <trkpt lat="43.50144" lon="6.3951">
        <ele>174.9</ele>
        <time>2016-09-09T13:57:33Z</time>
      </trkpt>
      <trkpt lat="43.50143" lon="6.39497">
        <ele>175.7</ele>
        <time>2016-09-09T13:57:43Z</time>
      </trkpt>
      <trkpt lat="43.5014" lon="6.39485">
        <ele>176.2</ele>
        <time>2016-09-09T13:57:53Z</time>
      </trkpt>
      <trkpt lat="43.50138" lon="6.39472">
        <ele>177.2</ele>
        <time>2016-09-09T13:58:02Z</time>
      </trkpt>
      <trkpt lat="43.50135" lon="6.39461">
        <ele>178</ele>
        <time>2016-09-09T13:58:12Z</time>
      </trkpt>
      <trkpt lat="43.5013" lon="6.3945">
        <ele>178.9</ele>
        <time>2016-09-09T13:58:22Z</time>
      </trkpt>
      <trkpt lat="43.50127" lon="6.39438">
        <ele>180.2</ele>
        <time>2016-09-09T13:58:33Z</time>
      </trkpt>
      <trkpt lat="43.50123" lon="6.39426">
        <ele>181.4</ele>
        <time>2016-09-09T13:58:44Z</time>
      </trkpt>
      <trkpt lat="43.5012" lon="6.39414">
        <ele>182.5</ele>
        <time>2016-09-09T13:58:54Z</time>
      </trkpt>
      <trkpt lat="43.50118" lon="6.39401">
        <ele>183.2</ele>
        <time>2016-09-09T13:59:04Z</time>
      </trkpt>
      <trkpt lat="43.50116" lon="6.39388">
        <ele>184.6</ele>
        <time>2016-09-09T13:59:14Z</time>
      </trkpt>
      <trkpt lat="43.50117" lon="6.39375">
        <ele>185.3</ele>
        <time>2016-09-09T13:59:23Z</time>
      </trkpt>
      <trkpt lat="43.50119" lon="6.39363">
        <ele>185.9</ele>
        <time>2016-09-09T13:59:32Z</time>
      </trkpt>
      <trkpt lat="43.50121" lon="6.3935">
        <ele>186.8</ele>
        <time>2016-09-09T13:59:41Z</time>
      </trkpt>
      <trkpt lat="43.50125" lon="6.39339">
        <ele>187.6</ele>
        <time>2016-09-09T13:59:51Z</time>
      </trkpt>
      <trkpt lat="43.50129" lon="6.39328">
        <ele>187.4</ele>
        <time>2016-09-09T14:00:01Z</time>
      </trkpt>
      <trkpt lat="43.50134" lon="6.39316">
        <ele>186.8</ele>
        <time>2016-09-09T14:00:11Z</time>
      </trkpt>
      <trkpt lat="43.50138" lon="6.39305">
        <ele>186.1</ele>
        <time>2016-09-09T14:00:21Z</time>
      </trkpt>
      <trkpt lat="43.50144" lon="6.39295">
        <ele>185.6</ele>
        <time>2016-09-09T14:00:31Z</time>
      </trkpt>
      <trkpt lat="43.50149" lon="6.39284">
        <ele>185.5</ele>
        <time>2016-09-09T14:00:41Z</time>
      </trkpt>
      <trkpt lat="43.50153" lon="6.39271">
        <ele>185.2</ele>
        <time>2016-09-09T14:00:50Z</time>
      </trkpt>
      <trkpt lat="43.50154" lon="6.39258">
        <ele>185.2</ele>
        <time>2016-09-09T14:00:57Z</time>
      </trkpt>
      <trkpt lat="43.50157" lon="6.39246">
        <ele>185.4</ele>
        <time>2016-09-09T14:01:06Z</time>
      </trkpt>
      <trkpt lat="43.50159" lon="6.39233">
        <ele>185.3</ele>
        <time>2016-09-09T14:01:16Z</time>
      </trkpt>
      <trkpt lat="43.50162" lon="6.3922">
        <ele>185.4</ele>
        <time>2016-09-09T14:01:28Z</time>
      </trkpt>
      <trkpt lat="43.50163" lon="6.39207">
        <ele>185.8</ele>
        <time>2016-09-09T14:01:37Z</time>
      </trkpt>
      <trkpt lat="43.50164" lon="6.39194">
        <ele>186.5</ele>
        <time>2016-09-09T14:01:45Z</time>
      </trkpt>
      <trkpt lat="43.50164" lon="6.39182">
        <ele>187</ele>
        <time>2016-09-09T14:01:54Z</time>
      </trkpt>
      <trkpt lat="43.50164" lon="6.39169">
        <ele>188</ele>
        <time>2016-09-09T14:02:04Z</time>
      </trkpt>
      <trkpt lat="43.50166" lon="6.39155">
        <ele>188.5</ele>
        <time>2016-09-09T14:02:14Z</time>
      </trkpt>
      <trkpt lat="43.50169" lon="6.39143">
        <ele>188.9</ele>
        <time>2016-09-09T14:02:24Z</time>
      </trkpt>
      <trkpt lat="43.50171" lon="6.39131">
        <ele>188.9</ele>
        <time>2016-09-09T14:02:34Z</time>
      </trkpt>
      <trkpt lat="43.50173" lon="6.39118">
        <ele>188.4</ele>
        <time>2016-09-09T14:02:43Z</time>
      </trkpt>
      <trkpt lat="43.50176" lon="6.39106">
        <ele>187.7</ele>
        <time>2016-09-09T14:02:53Z</time>
      </trkpt>
      <trkpt lat="43.5018" lon="6.39094">
        <ele>186.7</ele>
        <time>2016-09-09T14:03:05Z</time>
      </trkpt>
      <trkpt lat="43.50181" lon="6.39081">
        <ele>186.2</ele>
        <time>2016-09-09T14:03:15Z</time>
      </trkpt>
      <trkpt lat="43.50183" lon="6.39068">
        <ele>185.6</ele>
        <time>2016-09-09T14:03:25Z</time>
      </trkpt>
      <trkpt lat="43.50185" lon="6.39054">
        <ele>185.2</ele>
        <time>2016-09-09T14:03:34Z</time>
      </trkpt>
      <trkpt lat="43.50187" lon="6.39041">
        <ele>184.7</ele>
        <time>2016-09-09T14:03:44Z</time>
      </trkpt>
      <trkpt lat="43.50188" lon="6.39028">
        <ele>184</ele>
        <time>2016-09-09T14:03:52Z</time>
      </trkpt>
      <trkpt lat="43.5019" lon="6.39015">
        <ele>183.5</ele>
        <time>2016-09-09T14:04:01Z</time>
      </trkpt>
      <trkpt lat="43.50193" lon="6.39002">
        <ele>183.6</ele>
        <time>2016-09-09T14:04:10Z</time>
      </trkpt>
      <trkpt lat="43.50196" lon="6.38988">
        <ele>183.5</ele>
        <time>2016-09-09T14:04:20Z</time>
      </trkpt>
      <trkpt lat="43.50198" lon="6.38976">
        <ele>183.3</ele>
        <time>2016-09-09T14:04:28Z</time>
      </trkpt>
      <trkpt lat="43.50201" lon="6.38963">
        <ele>182.6</ele>
        <time>2016-09-09T14:04:37Z</time>
      </trkpt>
      <trkpt lat="43.50204" lon="6.38952">
        <ele>182.6</ele>
        <time>2016-09-09T14:04:47Z</time>
      </trkpt>
      <trkpt lat="43.50208" lon="6.38939">
        <ele>182.7</ele>
        <time>2016-09-09T14:04:56Z</time>
      </trkpt>
      <trkpt lat="43.50209" lon="6.38927">
        <ele>182.8</ele>
        <time>2016-09-09T14:05:05Z</time>
      </trkpt>
      <trkpt lat="43.5021" lon="6.38914">
        <ele>182.8</ele>
        <time>2016-09-09T14:05:13Z</time>
      </trkpt>
      <trkpt lat="43.50213" lon="6.389">
        <ele>182.7</ele>
        <time>2016-09-09T14:05:22Z</time>
      </trkpt>
      <trkpt lat="43.50215" lon="6.38887">
        <ele>182.9</ele>
        <time>2016-09-09T14:05:31Z</time>
      </trkpt>
      <trkpt lat="43.50217" lon="6.38873">
        <ele>182.9</ele>
        <time>2016-09-09T14:05:41Z</time>
      </trkpt>
      <trkpt lat="43.50219" lon="6.38861">
        <ele>183.6</ele>
        <time>2016-09-09T14:05:51Z</time>
      </trkpt>
      <trkpt lat="43.50219" lon="6.38848">
        <ele>184</ele>
        <time>2016-09-09T14:05:59Z</time>
      </trkpt>
      <trkpt lat="43.50216" lon="6.38836">
        <ele>184.6</ele>
        <time>2016-09-09T14:06:09Z</time>
      </trkpt>
      <trkpt lat="43.50214" lon="6.38824">
        <ele>185.2</ele>
        <time>2016-09-09T14:07:09Z</time>
      </trkpt>
      <trkpt lat="43.50205" lon="6.38822">
        <ele>185.2</ele>
        <time>2016-09-09T14:13:54Z</time>
      </trkpt>
      <trkpt lat="43.50197" lon="6.38816">
        <ele>184.9</ele>
        <time>2016-09-09T14:14:06Z</time>
      </trkpt>
      <trkpt lat="43.50189" lon="6.38809">
        <ele>184.4</ele>
        <time>2016-09-09T14:14:16Z</time>
      </trkpt>
      <trkpt lat="43.50181" lon="6.38804">
        <ele>184.2</ele>
        <time>2016-09-09T14:14:24Z</time>
      </trkpt>
      <trkpt lat="43.50172" lon="6.38798">
        <ele>184.1</ele>
        <time>2016-09-09T14:14:32Z</time>
      </trkpt>
      <trkpt lat="43.50163" lon="6.38792">
        <ele>183.8</ele>
        <time>2016-09-09T14:14:41Z</time>
      </trkpt>
      <trkpt lat="43.50155" lon="6.38786">
        <ele>183.8</ele>
        <time>2016-09-09T14:14:50Z</time>
      </trkpt>
      <trkpt lat="43.50146" lon="6.3878">
        <ele>183.7</ele>
        <time>2016-09-09T14:14:59Z</time>
      </trkpt>
      <trkpt lat="43.50137" lon="6.38775">
        <ele>183.7</ele>
        <time>2016-09-09T14:15:07Z</time>
      </trkpt>
      <trkpt lat="43.5013" lon="6.38766">
        <ele>183.4</ele>
        <time>2016-09-09T14:15:21Z</time>
      </trkpt>
      <trkpt lat="43.50134" lon="6.38754">
        <ele>183.7</ele>
        <time>2016-09-09T14:15:32Z</time>
      </trkpt>
      <trkpt lat="43.50136" lon="6.38741">
        <ele>183.9</ele>
        <time>2016-09-09T14:15:42Z</time>
      </trkpt>
      <trkpt lat="43.50137" lon="6.38728">
        <ele>184.3</ele>
        <time>2016-09-09T14:15:51Z</time>
      </trkpt>
      <trkpt lat="43.50138" lon="6.38715">
        <ele>184.4</ele>
        <time>2016-09-09T14:16:00Z</time>
      </trkpt>
      <trkpt lat="43.5014" lon="6.38703">
        <ele>184.8</ele>
        <time>2016-09-09T14:16:10Z</time>
      </trkpt>
      <trkpt lat="43.50143" lon="6.3869">
        <ele>185.4</ele>
        <time>2016-09-09T14:16:21Z</time>
      </trkpt>
      <trkpt lat="43.50145" lon="6.38677">
        <ele>186.1</ele>
        <time>2016-09-09T14:16:30Z</time>
      </trkpt>
      <trkpt lat="43.50148" lon="6.38665">
        <ele>186.5</ele>
        <time>2016-09-09T14:16:39Z</time>
      </trkpt>
      <trkpt lat="43.50153" lon="6.38654">
        <ele>187.2</ele>
        <time>2016-09-09T14:16:47Z</time>
      </trkpt>
      <trkpt lat="43.50157" lon="6.38642">
        <ele>187.9</ele>
        <time>2016-09-09T14:16:56Z</time>
      </trkpt>
      <trkpt lat="43.5016" lon="6.3863">
        <ele>189.1</ele>
        <time>2016-09-09T14:17:06Z</time>
      </trkpt>
      <trkpt lat="43.50162" lon="6.38617">
        <ele>189.5</ele>
        <time>2016-09-09T14:17:16Z</time>
      </trkpt>
      <trkpt lat="43.50164" lon="6.38603">
        <ele>189.7</ele>
        <time>2016-09-09T14:17:24Z</time>
      </trkpt>
      <trkpt lat="43.50166" lon="6.3859">
        <ele>190.1</ele>
        <time>2016-09-09T14:17:33Z</time>
      </trkpt>
      <trkpt lat="43.50167" lon="6.38577">
        <ele>190.3</ele>
        <time>2016-09-09T14:17:41Z</time>
      </trkpt>
      <trkpt lat="43.50172" lon="6.38567">
        <ele>190.9</ele>
        <time>2016-09-09T14:18:13Z</time>
      </trkpt>
      <trkpt lat="43.50171" lon="6.38554">
        <ele>191.6</ele>
        <time>2016-09-09T14:18:24Z</time>
      </trkpt>
      <trkpt lat="43.5017" lon="6.38541">
        <ele>192.2</ele>
        <time>2016-09-09T14:18:33Z</time>
      </trkpt>
      <trkpt lat="43.50169" lon="6.38528">
        <ele>192.7</ele>
        <time>2016-09-09T14:18:45Z</time>
      </trkpt>
      <trkpt lat="43.5017" lon="6.38514">
        <ele>193.1</ele>
        <time>2016-09-09T14:18:55Z</time>
      </trkpt>
      <trkpt lat="43.5017" lon="6.38501">
        <ele>193.5</ele>
        <time>2016-09-09T14:19:05Z</time>
      </trkpt>
      <trkpt lat="43.50171" lon="6.38488">
        <ele>194.4</ele>
        <time>2016-09-09T14:19:16Z</time>
      </trkpt>
      <trkpt lat="43.50173" lon="6.38475">
        <ele>194.8</ele>
        <time>2016-09-09T14:19:28Z</time>
      </trkpt>
      <trkpt lat="43.50169" lon="6.38463">
        <ele>194.5</ele>
        <time>2016-09-09T14:19:45Z</time>
      </trkpt>
      <trkpt lat="43.50172" lon="6.38451">
        <ele>195</ele>
        <time>2016-09-09T14:20:00Z</time>
      </trkpt>
      <trkpt lat="43.50174" lon="6.38438">
        <ele>195.2</ele>
        <time>2016-09-09T14:20:14Z</time>
      </trkpt>
      <trkpt lat="43.50174" lon="6.38425">
        <ele>196.2</ele>
        <time>2016-09-09T14:20:31Z</time>
      </trkpt>
      <trkpt lat="43.50173" lon="6.38412">
        <ele>196.1</ele>
        <time>2016-09-09T14:20:47Z</time>
      </trkpt>
      <trkpt lat="43.50174" lon="6.38399">
        <ele>197.4</ele>
        <time>2016-09-09T14:21:02Z</time>
      </trkpt>
      <trkpt lat="43.50176" lon="6.38386">
        <ele>197.9</ele>
        <time>2016-09-09T14:21:15Z</time>
      </trkpt>
      <trkpt lat="43.50176" lon="6.38373">
        <ele>198.1</ele>
        <time>2016-09-09T14:21:26Z</time>
      </trkpt>
      <trkpt lat="43.50175" lon="6.3836">
        <ele>198.1</ele>
        <time>2016-09-09T14:21:41Z</time>
      </trkpt>
      <trkpt lat="43.50174" lon="6.38348">
        <ele>198.8</ele>
        <time>2016-09-09T14:21:51Z</time>
      </trkpt>
      <trkpt lat="43.50175" lon="6.38334">
        <ele>199.3</ele>
        <time>2016-09-09T14:22:05Z</time>
      </trkpt>
      <trkpt lat="43.50177" lon="6.38322">
        <ele>200</ele>
        <time>2016-09-09T14:22:19Z</time>
      </trkpt>
      <trkpt lat="43.50175" lon="6.38309">
        <ele>200.5</ele>
        <time>2016-09-09T14:22:30Z</time>
      </trkpt>
      <trkpt lat="43.50173" lon="6.38297">
        <ele>201.2</ele>
        <time>2016-09-09T14:22:45Z</time>
      </trkpt>
      <trkpt lat="43.50173" lon="6.38283">
        <ele>202.2</ele>
        <time>2016-09-09T14:22:59Z</time>
      </trkpt>
      <trkpt lat="43.50173" lon="6.3827">
        <ele>202.7</ele>
        <time>2016-09-09T14:23:10Z</time>
      </trkpt>
      <trkpt lat="43.50177" lon="6.38258">
        <ele>203.8</ele>
        <time>2016-09-09T14:23:22Z</time>
      </trkpt>
      <trkpt lat="43.50178" lon="6.38246">
        <ele>204.3</ele>
        <time>2016-09-09T14:23:32Z</time>
      </trkpt>
      <trkpt lat="43.50176" lon="6.38233">
        <ele>205.1</ele>
        <time>2016-09-09T14:23:42Z</time>
      </trkpt>
      <trkpt lat="43.50176" lon="6.3822">
        <ele>205.6</ele>
        <time>2016-09-09T14:23:54Z</time>
      </trkpt>
      <trkpt lat="43.50175" lon="6.38207">
        <ele>206.3</ele>
        <time>2016-09-09T14:24:06Z</time>
      </trkpt>
      <trkpt lat="43.50177" lon="6.38194">
        <ele>207.1</ele>
        <time>2016-09-09T14:24:17Z</time>
      </trkpt>
      <trkpt lat="43.5018" lon="6.38182">
        <ele>208</ele>
        <time>2016-09-09T14:24:30Z</time>
      </trkpt>
      <trkpt lat="43.50179" lon="6.38169">
        <ele>208.4</ele>
        <time>2016-09-09T14:24:44Z</time>
      </trkpt>
      <trkpt lat="43.50181" lon="6.38156">
        <ele>209.1</ele>
        <time>2016-09-09T14:24:58Z</time>
      </trkpt>
      <trkpt lat="43.5018" lon="6.38143">
        <ele>209.7</ele>
        <time>2016-09-09T14:25:11Z</time>
      </trkpt>
      <trkpt lat="43.5018" lon="6.3813">
        <ele>210.2</ele>
        <time>2016-09-09T14:25:23Z</time>
      </trkpt>
      <trkpt lat="43.50178" lon="6.38117">
        <ele>211.1</ele>
        <time>2016-09-09T14:25:36Z</time>
      </trkpt>
      <trkpt lat="43.50181" lon="6.38105">
        <ele>211.9</ele>
        <time>2016-09-09T14:25:48Z</time>
      </trkpt>
      <trkpt lat="43.50188" lon="6.38096">
        <ele>213.5</ele>
        <time>2016-09-09T14:26:02Z</time>
      </trkpt>
      <trkpt lat="43.50194" lon="6.38087">
        <ele>214.9</ele>
        <time>2016-09-09T14:26:17Z</time>
      </trkpt>
      <trkpt lat="43.50199" lon="6.38076">
        <ele>216.3</ele>
        <time>2016-09-09T14:26:37Z</time>
      </trkpt>
      <trkpt lat="43.50204" lon="6.38065">
        <ele>218.1</ele>
        <time>2016-09-09T14:26:56Z</time>
      </trkpt>
      <trkpt lat="43.50211" lon="6.38056">
        <ele>219.3</ele>
        <time>2016-09-09T14:27:09Z</time>
      </trkpt>
      <trkpt lat="43.50216" lon="6.38044">
        <ele>221.3</ele>
        <time>2016-09-09T14:27:31Z</time>
      </trkpt>
      <trkpt lat="43.50221" lon="6.38034">
        <ele>222.8</ele>
        <time>2016-09-09T14:27:50Z</time>
      </trkpt>
      <trkpt lat="43.50227" lon="6.38024">
        <ele>224.5</ele>
        <time>2016-09-09T14:28:03Z</time>
      </trkpt>
      <trkpt lat="43.50233" lon="6.38014">
        <ele>226.6</ele>
        <time>2016-09-09T14:28:25Z</time>
      </trkpt>
      <trkpt lat="43.50235" lon="6.38001">
        <ele>227.9</ele>
        <time>2016-09-09T14:28:41Z</time>
      </trkpt>
      <trkpt lat="43.50239" lon="6.37988">
        <ele>230</ele>
        <time>2016-09-09T14:29:00Z</time>
      </trkpt>
      <trkpt lat="43.50243" lon="6.37977">
        <ele>231.9</ele>
        <time>2016-09-09T14:29:17Z</time>
      </trkpt>
      <trkpt lat="43.50247" lon="6.37966">
        <ele>233.6</ele>
        <time>2016-09-09T14:29:33Z</time>
      </trkpt>
      <trkpt lat="43.50249" lon="6.37954">
        <ele>234.7</ele>
        <time>2016-09-09T14:29:48Z</time>
      </trkpt>
      <trkpt lat="43.50247" lon="6.37941">
        <ele>237</ele>
        <time>2016-09-09T14:30:27Z</time>
      </trkpt>
      <trkpt lat="43.50239" lon="6.37937">
        <ele>238.4</ele>
        <time>2016-09-09T14:35:17Z</time>
      </trkpt>
      <trkpt lat="43.50232" lon="6.37928">
        <ele>239.7</ele>
        <time>2016-09-09T14:35:32Z</time>
      </trkpt>
      <trkpt lat="43.50224" lon="6.37922">
        <ele>241.4</ele>
        <time>2016-09-09T14:35:47Z</time>
      </trkpt>
      <trkpt lat="43.5022" lon="6.37909">
        <ele>242.3</ele>
        <time>2016-09-09T14:36:03Z</time>
      </trkpt>
      <trkpt lat="43.5022" lon="6.37897">
        <ele>243</ele>
        <time>2016-09-09T14:36:13Z</time>
      </trkpt>
      <trkpt lat="43.5022" lon="6.37883">
        <ele>243.5</ele>
        <time>2016-09-09T14:36:24Z</time>
      </trkpt>
      <trkpt lat="43.50217" lon="6.37871">
        <ele>244</ele>
        <time>2016-09-09T14:36:34Z</time>
      </trkpt>
      <trkpt lat="43.50212" lon="6.37859">
        <ele>244.4</ele>
        <time>2016-09-09T14:36:45Z</time>
      </trkpt>
      <trkpt lat="43.50211" lon="6.37846">
        <ele>244.9</ele>
        <time>2016-09-09T14:36:58Z</time>
      </trkpt>
      <trkpt lat="43.50209" lon="6.37833">
        <ele>245.1</ele>
        <time>2016-09-09T14:37:08Z</time>
      </trkpt>
      <trkpt lat="43.50208" lon="6.37819">
        <ele>244.9</ele>
        <time>2016-09-09T14:37:21Z</time>
      </trkpt>
      <trkpt lat="43.50209" lon="6.37806">
        <ele>245.6</ele>
        <time>2016-09-09T14:37:31Z</time>
      </trkpt>
      <trkpt lat="43.50209" lon="6.37793">
        <ele>245.9</ele>
        <time>2016-09-09T14:37:39Z</time>
      </trkpt>
      <trkpt lat="43.50206" lon="6.37781">
        <ele>245.8</ele>
        <time>2016-09-09T14:37:49Z</time>
      </trkpt>
      <trkpt lat="43.50204" lon="6.37768">
        <ele>245.8</ele>
        <time>2016-09-09T14:37:58Z</time>
      </trkpt>
      <trkpt lat="43.50203" lon="6.37755">
        <ele>246</ele>
        <time>2016-09-09T14:38:07Z</time>
      </trkpt>
      <trkpt lat="43.50199" lon="6.37744">
        <ele>246.2</ele>
        <time>2016-09-09T14:38:16Z</time>
      </trkpt>
      <trkpt lat="43.50195" lon="6.37732">
        <ele>246.7</ele>
        <time>2016-09-09T14:38:24Z</time>
      </trkpt>
      <trkpt lat="43.50192" lon="6.3772">
        <ele>247.6</ele>
        <time>2016-09-09T14:38:34Z</time>
      </trkpt>
      <trkpt lat="43.5019" lon="6.37706">
        <ele>248.8</ele>
        <time>2016-09-09T14:38:44Z</time>
      </trkpt>
      <trkpt lat="43.50188" lon="6.37693">
        <ele>249.6</ele>
        <time>2016-09-09T14:38:53Z</time>
      </trkpt>
      <trkpt lat="43.50188" lon="6.3768">
        <ele>250.4</ele>
        <time>2016-09-09T14:39:02Z</time>
      </trkpt>
      <trkpt lat="43.50187" lon="6.37668">
        <ele>251.4</ele>
        <time>2016-09-09T14:39:12Z</time>
      </trkpt>
      <trkpt lat="43.50186" lon="6.37655">
        <ele>252.8</ele>
        <time>2016-09-09T14:39:23Z</time>
      </trkpt>
      <trkpt lat="43.50181" lon="6.37643">
        <ele>252.9</ele>
        <time>2016-09-09T14:39:33Z</time>
      </trkpt>
      <trkpt lat="43.50174" lon="6.37635">
        <ele>252.9</ele>
        <time>2016-09-09T14:39:43Z</time>
      </trkpt>
      <trkpt lat="43.50166" lon="6.37628">
        <ele>252.9</ele>
        <time>2016-09-09T14:39:52Z</time>
      </trkpt>
      <trkpt lat="43.50161" lon="6.37618">
        <ele>253.4</ele>
        <time>2016-09-09T14:40:03Z</time>
      </trkpt>
      <trkpt lat="43.50155" lon="6.37606">
        <ele>254</ele>
        <time>2016-09-09T14:40:13Z</time>
      </trkpt>
      <trkpt lat="43.50147" lon="6.37599">
        <ele>254.8</ele>
        <time>2016-09-09T14:40:23Z</time>
      </trkpt>
      <trkpt lat="43.50142" lon="6.37587">
        <ele>255.2</ele>
        <time>2016-09-09T14:42:11Z</time>
      </trkpt>
      <trkpt lat="43.50135" lon="6.37578">
        <ele>255.4</ele>
        <time>2016-09-09T14:47:15Z</time>
      </trkpt>
      <trkpt lat="43.5013" lon="6.37567">
        <ele>255.6</ele>
        <time>2016-09-09T14:47:26Z</time>
      </trkpt>
      <trkpt lat="43.50125" lon="6.37556">
        <ele>256.8</ele>
        <time>2016-09-09T14:47:36Z</time>
      </trkpt>
      <trkpt lat="43.5012" lon="6.37545">
        <ele>257.6</ele>
        <time>2016-09-09T14:47:50Z</time>
      </trkpt>
      <trkpt lat="43.50116" lon="6.37533">
        <ele>258.6</ele>
        <time>2016-09-09T14:48:02Z</time>
      </trkpt>
      <trkpt lat="43.50112" lon="6.37522">
        <ele>259.7</ele>
        <time>2016-09-09T14:48:14Z</time>
      </trkpt>
      <trkpt lat="43.50106" lon="6.37512">
        <ele>260.6</ele>
        <time>2016-09-09T14:48:24Z</time>
      </trkpt>
      <trkpt lat="43.50101" lon="6.37501">
        <ele>261.7</ele>
        <time>2016-09-09T14:48:36Z</time>
      </trkpt>
      <trkpt lat="43.50097" lon="6.37489">
        <ele>262.8</ele>
        <time>2016-09-09T14:48:46Z</time>
      </trkpt>
      <trkpt lat="43.50093" lon="6.37477">
        <ele>264.3</ele>
        <time>2016-09-09T14:48:57Z</time>
      </trkpt>
      <trkpt lat="43.50091" lon="6.37464">
        <ele>266.5</ele>
        <time>2016-09-09T14:49:09Z</time>
      </trkpt>
      <trkpt lat="43.50089" lon="6.37451">
        <ele>267.7</ele>
        <time>2016-09-09T14:49:19Z</time>
      </trkpt>
      <trkpt lat="43.50088" lon="6.37439">
        <ele>268.9</ele>
        <time>2016-09-09T14:49:29Z</time>
      </trkpt>
      <trkpt lat="43.50088" lon="6.37426">
        <ele>270.3</ele>
        <time>2016-09-09T14:49:40Z</time>
      </trkpt>
      <trkpt lat="43.50089" lon="6.37412">
        <ele>271.5</ele>
        <time>2016-09-09T14:49:51Z</time>
      </trkpt>
      <trkpt lat="43.5009" lon="6.37399">
        <ele>272.1</ele>
        <time>2016-09-09T14:50:01Z</time>
      </trkpt>
      <trkpt lat="43.50088" lon="6.37387">
        <ele>272.3</ele>
        <time>2016-09-09T14:50:10Z</time>
      </trkpt>
      <trkpt lat="43.50082" lon="6.37376">
        <ele>272.7</ele>
        <time>2016-09-09T14:50:21Z</time>
      </trkpt>
      <trkpt lat="43.50079" lon="6.37364">
        <ele>273.3</ele>
        <time>2016-09-09T14:50:32Z</time>
      </trkpt>
      <trkpt lat="43.50078" lon="6.37351">
        <ele>273.8</ele>
        <time>2016-09-09T14:50:42Z</time>
      </trkpt>
      <trkpt lat="43.50078" lon="6.37339">
        <ele>274.1</ele>
        <time>2016-09-09T14:50:53Z</time>
      </trkpt>
      <trkpt lat="43.50076" lon="6.37326">
        <ele>274.2</ele>
        <time>2016-09-09T14:51:07Z</time>
      </trkpt>
      <trkpt lat="43.50084" lon="6.37319">
        <ele>274.1</ele>
        <time>2016-09-09T14:54:15Z</time>
      </trkpt>
      <trkpt lat="43.50087" lon="6.37306">
        <ele>273.4</ele>
        <time>2016-09-09T14:54:29Z</time>
      </trkpt>
      <trkpt lat="43.50087" lon="6.37293">
        <ele>273.2</ele>
        <time>2016-09-09T14:54:39Z</time>
      </trkpt>
      <trkpt lat="43.50087" lon="6.37279">
        <ele>273.2</ele>
        <time>2016-09-09T14:54:48Z</time>
      </trkpt>
      <trkpt lat="43.50087" lon="6.37266">
        <ele>273.2</ele>
        <time>2016-09-09T14:54:57Z</time>
      </trkpt>
      <trkpt lat="43.50086" lon="6.37253">
        <ele>273.5</ele>
        <time>2016-09-09T14:55:07Z</time>
      </trkpt>
      <trkpt lat="43.50085" lon="6.3724">
        <ele>272.9</ele>
        <time>2016-09-09T14:55:21Z</time>
      </trkpt>
      <trkpt lat="43.50087" lon="6.37228">
        <ele>271.9</ele>
        <time>2016-09-09T14:56:38Z</time>
      </trkpt>
      <trkpt lat="43.50078" lon="6.37231">
        <ele>272.4</ele>
        <time>2016-09-09T14:59:26Z</time>
      </trkpt>
      <trkpt lat="43.50068" lon="6.37233">
        <ele>274.8</ele>
        <time>2016-09-09T14:59:46Z</time>
      </trkpt>
      <trkpt lat="43.50059" lon="6.37234">
        <ele>277</ele>
        <time>2016-09-09T15:00:00Z</time>
      </trkpt>
      <trkpt lat="43.5005" lon="6.37234">
        <ele>278.5</ele>
        <time>2016-09-09T15:00:16Z</time>
      </trkpt>
      <trkpt lat="43.50048" lon="6.37221">
        <ele>280.2</ele>
        <time>2016-09-09T15:00:28Z</time>
      </trkpt>
      <trkpt lat="43.50046" lon="6.37208">
        <ele>280.1</ele>
        <time>2016-09-09T15:00:38Z</time>
      </trkpt>
      <trkpt lat="43.50044" lon="6.37195">
        <ele>280.3</ele>
        <time>2016-09-09T15:00:47Z</time>
      </trkpt>
      <trkpt lat="43.50043" lon="6.37182">
        <ele>280.5</ele>
        <time>2016-09-09T15:00:56Z</time>
      </trkpt>
      <trkpt lat="43.50043" lon="6.37169">
        <ele>280.3</ele>
        <time>2016-09-09T15:01:05Z</time>
      </trkpt>
      <trkpt lat="43.50041" lon="6.37156">
        <ele>280.5</ele>
        <time>2016-09-09T15:01:13Z</time>
      </trkpt>
      <trkpt lat="43.50039" lon="6.37144">
        <ele>280.2</ele>
        <time>2016-09-09T15:02:00Z</time>
      </trkpt>
      <trkpt lat="43.50041" lon="6.37132">
        <ele>280.4</ele>
        <time>2016-09-09T15:03:30Z</time>
      </trkpt>
      <trkpt lat="43.50039" lon="6.37119">
        <ele>280.4</ele>
        <time>2016-09-09T15:03:43Z</time>
      </trkpt>
      <trkpt lat="43.50037" lon="6.37106">
        <ele>280.5</ele>
        <time>2016-09-09T15:03:54Z</time>
      </trkpt>
      <trkpt lat="43.50034" lon="6.37094">
        <ele>280.6</ele>
        <time>2016-09-09T15:04:05Z</time>
      </trkpt>
      <trkpt lat="43.50032" lon="6.37082">
        <ele>280.5</ele>
        <time>2016-09-09T15:04:15Z</time>
      </trkpt>
      <trkpt lat="43.5003" lon="6.37069">
        <ele>280.1</ele>
        <time>2016-09-09T15:04:24Z</time>
      </trkpt>
      <trkpt lat="43.50027" lon="6.37057">
        <ele>279.9</ele>
        <time>2016-09-09T15:04:36Z</time>
      </trkpt>
      <trkpt lat="43.50019" lon="6.37049">
        <ele>280.6</ele>
        <time>2016-09-09T15:04:48Z</time>
      </trkpt>
      <trkpt lat="43.50015" lon="6.37038">
        <ele>281.7</ele>
        <time>2016-09-09T15:04:55Z</time>
      </trkpt>
      <trkpt lat="43.50007" lon="6.3703">
        <ele>282.3</ele>
        <time>2016-09-09T15:05:08Z</time>
      </trkpt>
      <trkpt lat="43.49999" lon="6.37027">
        <ele>283.5</ele>
        <time>2016-09-09T15:05:17Z</time>
      </trkpt>
      <trkpt lat="43.49992" lon="6.37018">
        <ele>284.2</ele>
        <time>2016-09-09T15:05:27Z</time>
      </trkpt>
      <trkpt lat="43.49983" lon="6.37014">
        <ele>284.6</ele>
        <time>2016-09-09T15:05:37Z</time>
      </trkpt>
      <trkpt lat="43.49974" lon="6.37012">
        <ele>285.3</ele>
        <time>2016-09-09T15:05:46Z</time>
      </trkpt>
      <trkpt lat="43.49964" lon="6.3701">
        <ele>286.1</ele>
        <time>2016-09-09T15:05:57Z</time>
      </trkpt>
      <trkpt lat="43.49956" lon="6.37004">
        <ele>285.5</ele>
        <time>2016-09-09T15:06:06Z</time>
      </trkpt>
      <trkpt lat="43.49948" lon="6.36996">
        <ele>284.7</ele>
        <time>2016-09-09T15:06:15Z</time>
      </trkpt>
      <trkpt lat="43.49941" lon="6.36987">
        <ele>284</ele>
        <time>2016-09-09T15:06:24Z</time>
      </trkpt>
      <trkpt lat="43.49931" lon="6.36984">
        <ele>283.4</ele>
        <time>2016-09-09T15:06:36Z</time>
      </trkpt>
      <trkpt lat="43.49922" lon="6.36981">
        <ele>283.4</ele>
        <time>2016-09-09T15:06:46Z</time>
      </trkpt>
      <trkpt lat="43.49912" lon="6.3698">
        <ele>283.3</ele>
        <time>2016-09-09T15:06:56Z</time>
      </trkpt>
      <trkpt lat="43.49903" lon="6.36984">
        <ele>284</ele>
        <time>2016-09-09T15:07:08Z</time>
      </trkpt>
      <trkpt lat="43.49896" lon="6.3699">
        <ele>284.8</ele>
        <time>2016-09-09T15:07:19Z</time>
      </trkpt>
      <trkpt lat="43.49888" lon="6.36998">
        <ele>285.6</ele>
        <time>2016-09-09T15:07:30Z</time>
      </trkpt>
      <trkpt lat="43.49879" lon="6.37003">
        <ele>285.6</ele>
        <time>2016-09-09T15:07:48Z</time>
      </trkpt>
      <trkpt lat="43.4987" lon="6.37003">
        <ele>286.3</ele>
        <time>2016-09-09T15:08:32Z</time>
      </trkpt>
      <trkpt lat="43.49861" lon="6.37001">
        <ele>286</ele>
        <time>2016-09-09T15:08:44Z</time>
      </trkpt>
      <trkpt lat="43.49852" lon="6.37002">
        <ele>285.3</ele>
        <time>2016-09-09T15:08:57Z</time>
      </trkpt>
      <trkpt lat="43.49843" lon="6.37003">
        <ele>285.1</ele>
        <time>2016-09-09T15:09:06Z</time>
      </trkpt>
      <trkpt lat="43.49834" lon="6.37007">
        <ele>285.2</ele>
        <time>2016-09-09T15:09:16Z</time>
      </trkpt>
      <trkpt lat="43.49828" lon="6.37017">
        <ele>285.4</ele>
        <time>2016-09-09T15:09:58Z</time>
      </trkpt>
      <trkpt lat="43.49818" lon="6.37017">
        <ele>285.9</ele>
        <time>2016-09-09T15:10:59Z</time>
      </trkpt>
      <trkpt lat="43.49809" lon="6.37016">
        <ele>285.8</ele>
        <time>2016-09-09T15:11:09Z</time>
      </trkpt>
      <trkpt lat="43.49799" lon="6.37018">
        <ele>286</ele>
        <time>2016-09-09T15:11:19Z</time>
      </trkpt>
      <trkpt lat="43.4979" lon="6.37022">
        <ele>285.8</ele>
        <time>2016-09-09T15:11:30Z</time>
      </trkpt>
      <trkpt lat="43.49781" lon="6.37022">
        <ele>284.7</ele>
        <time>2016-09-09T15:11:40Z</time>
      </trkpt>
      <trkpt lat="43.49772" lon="6.37024">
        <ele>283.3</ele>
        <time>2016-09-09T15:11:49Z</time>
      </trkpt>
      <trkpt lat="43.49763" lon="6.37027">
        <ele>281.6</ele>
        <time>2016-09-09T15:11:59Z</time>
      </trkpt>
      <trkpt lat="43.49754" lon="6.37027">
        <ele>280.7</ele>
        <time>2016-09-09T15:12:07Z</time>
      </trkpt>
      <trkpt lat="43.49745" lon="6.37031">
        <ele>279.7</ele>
        <time>2016-09-09T15:12:16Z</time>
      </trkpt>
      <trkpt lat="43.49737" lon="6.37038">
        <ele>279.7</ele>
        <time>2016-09-09T15:12:25Z</time>
      </trkpt>
      <trkpt lat="43.4973" lon="6.37046">
        <ele>280.1</ele>
        <time>2016-09-09T15:12:34Z</time>
      </trkpt>
      <trkpt lat="43.49723" lon="6.37056">
        <ele>280.3</ele>
        <time>2016-09-09T15:12:43Z</time>
      </trkpt>
      <trkpt lat="43.49716" lon="6.37066">
        <ele>279.9</ele>
        <time>2016-09-09T15:12:53Z</time>
      </trkpt>
      <trkpt lat="43.49708" lon="6.37073">
        <ele>279.7</ele>
        <time>2016-09-09T15:13:04Z</time>
      </trkpt>
      <trkpt lat="43.49699" lon="6.37077">
        <ele>278.2</ele>
        <time>2016-09-09T15:13:16Z</time>
      </trkpt>
      <trkpt lat="43.4969" lon="6.37083">
        <ele>277.3</ele>
        <time>2016-09-09T15:13:25Z</time>
      </trkpt>
      <trkpt lat="43.4968" lon="6.37088">
        <ele>276.2</ele>
        <time>2016-09-09T15:13:37Z</time>
      </trkpt>
      <trkpt lat="43.49672" lon="6.37094">
        <ele>275.5</ele>
        <time>2016-09-09T15:13:47Z</time>
      </trkpt>
      <trkpt lat="43.49664" lon="6.37101">
        <ele>274.5</ele>
        <time>2016-09-09T15:14:05Z</time>
      </trkpt>
      <trkpt lat="43.49657" lon="6.37109">
        <ele>272.7</ele>
        <time>2016-09-09T15:14:18Z</time>
      </trkpt>
      <trkpt lat="43.49648" lon="6.37113">
        <ele>271.1</ele>
        <time>2016-09-09T15:14:29Z</time>
      </trkpt>
      <trkpt lat="43.49641" lon="6.3712">
        <ele>269.3</ele>
        <time>2016-09-09T15:14:40Z</time>
      </trkpt>
      <trkpt lat="43.49635" lon="6.3713">
        <ele>268.1</ele>
        <time>2016-09-09T15:14:51Z</time>
      </trkpt>
      <trkpt lat="43.49626" lon="6.37135">
        <ele>266</ele>
        <time>2016-09-09T15:15:04Z</time>
      </trkpt>
      <trkpt lat="43.49619" lon="6.37127">
        <ele>263.8</ele>
        <time>2016-09-09T15:15:15Z</time>
      </trkpt>
      <trkpt lat="43.49618" lon="6.37113">
        <ele>262</ele>
        <time>2016-09-09T15:15:27Z</time>
      </trkpt>
      <trkpt lat="43.4961" lon="6.37118">
        <ele>259.8</ele>
        <time>2016-09-09T15:15:42Z</time>
      </trkpt>
      <trkpt lat="43.49606" lon="6.37129">
        <ele>258.5</ele>
        <time>2016-09-09T15:15:52Z</time>
      </trkpt>
      <trkpt lat="43.49602" lon="6.3714">
        <ele>257.2</ele>
        <time>2016-09-09T15:16:02Z</time>
      </trkpt>
      <trkpt lat="43.49595" lon="6.3715">
        <ele>256</ele>
        <time>2016-09-09T15:16:12Z</time>
      </trkpt>
      <trkpt lat="43.49588" lon="6.37157">
        <ele>254.8</ele>
        <time>2016-09-09T15:16:25Z</time>
      </trkpt>
      <trkpt lat="43.49578" lon="6.37158">
        <ele>253</ele>
        <time>2016-09-09T15:16:42Z</time>
      </trkpt>
      <trkpt lat="43.49574" lon="6.3715">
        <ele>251.2</ele>
        <time>2016-09-09T15:17:07Z</time>
      </trkpt>
    </trkseg>
  </trk>
</gpx>